Observation data for Van Horn on 05/24/2020      Previous  Date  Next       Current Mesonet Observations  Soil Data  Daily Summary Page  Observations in Plain Language
KVA1 240500Z 22001KT 23/M11 A2987 RMK A01 T02341106  RH  009%=      5-min Rain = 0
KVA1 240501Z 22002KT 23/M11 A2987 RMK A01 T02281109  RH  010%=      5-min Rain = 0
KVA1 240502Z 24002KT 22/M11 A2987 RMK A01 T02231109  RH  010%=      5-min Rain = 0
KVA1 240503Z 26002KT 23/M11 A2987 RMK A01 T02261108  RH  010%=      5-min Rain = 0
KVA1 240504Z 24002KT 23/M11 A2987 RMK A01 T02311106  RH  010%=      5-min Rain = 0
KVA1 240505Z 22001KT 23/M11 A2987 RMK A01 T02341106  RH  010%=      5-min Rain = 0
KVA1 240506Z 23002KT 23/M11 A2987 RMK A01 T02301107  RH  010%=      5-min Rain = 0
KVA1 240507Z 24002KT 23/M11 A2987 RMK A01 T02261108  RH  010%=      5-min Rain = 0
KVA1 240508Z 23002KT 23/M11 A2987 RMK A01 T02251108  RH  010%=      5-min Rain = 0
KVA1 240509Z 23002KT 22/M11 A2987 RMK A01 T02211108  RH  010%=      5-min Rain = 0
KVA1 240510Z 23003KT 22/M11 A2987 RMK A01 T02161107  RH  011%=      5-min Rain = 0
KVA1 240511Z 23003KT 21/M11 A2987 RMK A01 T02141105  RH  011%=      5-min Rain = 0
KVA1 240512Z 21002KT 21/M11 A2987 RMK A01 T02131106  RH  011%=      5-min Rain = 0
KVA1 240513Z 18001KT 22/M11 A2987 RMK A01 T02151106  RH  011%=      5-min Rain = 0
KVA1 240514Z 22001KT 22/M11 A2987 RMK A01 T02191105  RH  010%=      5-min Rain = 0
KVA1 240515Z 19001KT 22/M11 A2987 RMK A01 T02211105  RH  010%=      5-min Rain = 0
KVA1 240516Z 20003KT 22/M11 A2987 RMK A01 T02221106  RH  010%=      5-min Rain = 0
KVA1 240517Z 18003KT 22/M11 A2987 RMK A01 T02221106  RH  010%=      5-min Rain = 0
KVA1 240518Z 16002KT 22/M11 A2987 RMK A01 T02211106  RH  010%=      5-min Rain = 0
KVA1 240519Z 20002KT 22/M11 A2987 RMK A01 T02201106  RH  010%=      5-min Rain = 0
KVA1 240520Z 20002KT 22/M11 A2987 RMK A01 T02191106  RH  010%=      5-min Rain = 0
KVA1 240521Z 20002KT 22/M11 A2987 RMK A01 T02171105  RH  011%=      5-min Rain = 0
KVA1 240522Z 18002KT 22/M11 A2987 RMK A01 T02161106  RH  011%=      5-min Rain = 0
KVA1 240523Z 13003KT 22/M11 A2987 RMK A01 T02161108  RH  010%=      5-min Rain = 0
KVA1 240524Z 13003KT 22/M11 A2987 RMK A01 T02201108  RH  010%=      5-min Rain = 0
KVA1 240525Z 13003KT 22/M11 A2987 RMK A01 T02241108  RH  010%=      5-min Rain = 0
KVA1 240526Z 12003KT 23/M11 A2987 RMK A01 T02271107  RH  010%=      5-min Rain = 0
KVA1 240527Z 13003KT 23/M11 A2987 RMK A01 T02261105  RH  010%=      5-min Rain = 0
KVA1 240528Z 12004KT 23/M11 A2987 RMK A01 T02251105  RH  010%=      5-min Rain = 0
KVA1 240529Z 12004KT 22/M11 A2987 RMK A01 T02231105  RH  010%=      5-min Rain = 0
KVA1 240530Z 11004KT 22/M11 A2987 RMK A01 T02211105  RH  010%=      5-min Rain = 0
KVA1 240531Z 12004KT 22/M10 A2987 RMK A01 T02201104  RH  011%=      5-min Rain = 0
KVA1 240532Z 12004KT 22/M10 A2987 RMK A01 T02191104  RH  011%=      5-min Rain = 0
KVA1 240533Z 12004KT 22/M11 A2987 RMK A01 T02211105  RH  010%=      5-min Rain = 0
KVA1 240534Z 13003KT 22/M10 A2987 RMK A01 T02221104  RH  010%=      5-min Rain = 0
KVA1 240535Z 14002KT 22/M10 A2987 RMK A01 T02221101  RH  011%=      5-min Rain = 0
KVA1 240536Z 14002KT 22/M10 A2987 RMK A01 T02181102  RH  011%=      5-min Rain = 0
KVA1 240537Z 17002KT 22/M10 A2987 RMK A01 T02171103  RH  011%=      5-min Rain = 0
KVA1 240538Z 20003KT 22/M10 A2987 RMK A01 T02161102  RH  011%=      5-min Rain = 0
KVA1 240539Z 19003KT 22/M10 A2987 RMK A01 T02151104  RH  011%=      5-min Rain = 0
KVA1 240540Z 18003KT 22/M11 A2987 RMK A01 T02151105  RH  011%=      5-min Rain = 0
KVA1 240541Z 17004KT 21/M11 A2987 RMK A01 T02141105  RH  011%=      5-min Rain = 0
KVA1 240542Z 19004KT 21/M11 A2987 RMK A01 T02131105  RH  011%=      5-min Rain = 0
KVA1 240543Z 24006KT 21/M10 A2987 RMK A01 T02131104  RH  011%=      5-min Rain = 0
KVA1 240544Z 26006KT 21/M11 A2987 RMK A01 T02081107  RH  011%=      5-min Rain = 0
KVA1 240545Z 25004KT 20/M11 A2987 RMK A01 T02041107  RH  011%=      5-min Rain = 0
KVA1 240546Z 24005KT 20/M11 A2987 RMK A01 T02041106  RH  011%=      5-min Rain = 0
KVA1 240547Z 25007KT 21/M11 A2988 RMK A01 T02051105  RH  011%=      5-min Rain = 0
KVA1 240548Z 25006KT 21/M10 A2988 RMK A01 T02071104  RH  011%=      5-min Rain = 0
KVA1 240549Z 25004KT 21/M11 A2988 RMK A01 T02071105  RH  011%=      5-min Rain = 0
KVA1 240550Z 24003KT 21/M11 A2988 RMK A01 T02071105  RH  011%=      5-min Rain = 0
KVA1 240551Z 22003KT 21/M10 A2988 RMK A01 T02071104  RH  011%=      5-min Rain = 0
KVA1 240552Z 21004KT 21/M10 A2988 RMK A01 T02071103  RH  011%=      5-min Rain = 0
KVA1 240553Z 20005KT 21/M10 A2988 RMK A01 T02071103  RH  012%=      5-min Rain = 0
KVA1 240554Z 19005KT 21/M10 A2988 RMK A01 T02081103  RH  011%=      5-min Rain = 0
KVA1 240555Z 20005KT 21/M10 A2988 RMK A01 T02101104  RH  011%=      5-min Rain = 0
KVA1 240556Z 19006KT 21/M10 A2988 RMK A01 T02101104  RH  011%=      5-min Rain = 0
KVA1 240557Z 19007KT 21/M11 A2988 RMK A01 T02091105  RH  011%=      5-min Rain = 0
KVA1 240558Z 19007KT 21/M10 A2988 RMK A01 T02051104  RH  011%=      5-min Rain = 0
KVA1 240559Z 19007KT 20/M10 A2988 RMK A01 T02041103  RH  012%=      5-min Rain = 0
KVA1 240600Z 19008KT 20/M10 A2988 RMK A01 T02031103  RH  012%=      5-min Rain = 0
KVA1 240601Z 18010KT 20/M10 A2988 RMK A01 T02031103  RH  012%=      5-min Rain = 0
KVA1 240602Z 18010KT 20/M10 A2988 RMK A01 T02001104  RH  012%=      5-min Rain = 0
KVA1 240603Z 18011KT 20/M10 A2988 RMK A01 T01981104  RH  012%=      5-min Rain = 0
KVA1 240604Z 18010KT 20/M10 A2988 RMK A01 T01971100  RH  012%=      5-min Rain = 0
KVA1 240605Z 19009KT 20/M09 A2988 RMK A01 T01981092  RH  013%=      5-min Rain = 0
KVA1 240606Z 19008KT 20/M09 A2988 RMK A01 T01991086  RH  014%=      5-min Rain = 0
KVA1 240607Z 19009KT 20/M08 A2988 RMK A01 T01991079  RH  015%=      5-min Rain = 0
KVA1 240608Z 19008KT 20/M07 A2989 RMK A01 T02001071  RH  015%=      5-min Rain = 0
KVA1 240609Z 19008KT 20/M06 A2989 RMK A01 T02001063  RH  016%=      5-min Rain = 0
KVA1 240610Z 19008KT 20/M05 A2989 RMK A01 T02021054  RH  017%=      5-min Rain = 0
KVA1 240611Z 19008KT 20/M05 A2989 RMK A01 T02031046  RH  018%=      5-min Rain = 0
KVA1 240612Z 19008KT 21/M04 A2989 RMK A01 T02051043  RH  018%=      5-min Rain = 0
KVA1 240613Z 19009KT 21/M04 A2989 RMK A01 T02061038  RH  019%=      5-min Rain = 0
KVA1 240614Z 19010KT 21/M03 A2989 RMK A01 T02071030  RH  020%=      5-min Rain = 0
KVA1 240615Z 20009KT 21/M02 A2989 RMK A01 T02101024  RH  021%=      5-min Rain = 0
KVA1 240616Z 19010KT 21/M02 A2989 RMK A01 T02111021  RH  021%=      5-min Rain = 0
KVA1 240617Z 18010KT 21/M01 A2989 RMK A01 T02131010  RH  022%=      5-min Rain = 0
KVA1 240618Z 19011KT 22/M00 A2989 RMK A01 T02151002  RH  023%=      5-min Rain = 0
KVA1 240619Z 20010KT 22/M01 A2989 RMK A01 T02171006  RH  023%=      5-min Rain = 0
KVA1 240620Z 19009KT 22/M01 A2989 RMK A01 T02161005  RH  023%=      5-min Rain = 0
KVA1 240621Z 18007KT 22/01 A2989 RMK A01 T02160005  RH  025%=      5-min Rain = 0
KVA1 240622Z 18008KT 22/01 A2989 RMK A01 T02170006  RH  025%=      5-min Rain = 0
KVA1 240623Z 18010KT 22/01 A2989 RMK A01 T02170012  RH  026%=      5-min Rain = 0
KVA1 240624Z 20009KT 22/01 A2989 RMK A01 T02180013  RH  026%=      5-min Rain = 0
KVA1 240625Z 19009KT 22/01 A2989 RMK A01 T02170011  RH  025%=      5-min Rain = 0
KVA1 240626Z 20008KT 22/01 A2989 RMK A01 T02160013  RH  026%=      5-min Rain = 0
KVA1 240627Z 19008KT 22/01 A2989 RMK A01 T02150014  RH  026%=      5-min Rain = 0
KVA1 240628Z 19009KT 21/02 A2989 RMK A01 T02140019  RH  027%=      5-min Rain = 0
KVA1 240629Z 19010KT 21/03 A2989 RMK A01 T02140025  RH  029%=      5-min Rain = 0
KVA1 240630Z 19008KT 21/03 A2989 RMK A01 T02140027  RH  029%=      5-min Rain = 0
KVA1 240631Z 20009KT 21/03 A2989 RMK A01 T02140028  RH  029%=      5-min Rain = 0
KVA1 240632Z 20008KT 21/03 A2989 RMK A01 T02140032  RH  030%=      5-min Rain = 0
KVA1 240633Z 20008KT 21/03 A2989 RMK A01 T02140033  RH  030%=      5-min Rain = 0
KVA1 240634Z 19008KT 21/04 A2989 RMK A01 T02140038  RH  031%=      5-min Rain = 0
KVA1 240635Z 19008KT 21/04 A2989 RMK A01 T02140041  RH  032%=      5-min Rain = 0
KVA1 240636Z 20007KT 21/04 A2989 RMK A01 T02140044  RH  033%=      5-min Rain = 0
KVA1 240637Z 21006KT 22/04 A2989 RMK A01 T02150044  RH  033%=      5-min Rain = 0
KVA1 240638Z 21007KT 21/04 A2989 RMK A01 T02140044  RH  033%=      5-min Rain = 0
KVA1 240639Z 20007KT 21/05 A2989 RMK A01 T02140045  RH  033%=      5-min Rain = 0
KVA1 240640Z 20007KT 21/05 A2989 RMK A01 T02140049  RH  034%=      5-min Rain = 0
KVA1 240641Z 20007KT 21/05 A2989 RMK A01 T02140048  RH  034%=      5-min Rain = 0
KVA1 240642Z 20007KT 21/05 A2989 RMK A01 T02140051  RH  034%=      5-min Rain = 0
KVA1 240643Z 20006KT 22/05 A2989 RMK A01 T02150053  RH  035%=      5-min Rain = 0
KVA1 240644Z 19008KT 22/05 A2989 RMK A01 T02150053  RH  035%=      5-min Rain = 0
KVA1 240645Z 19007KT 22/06 A2989 RMK A01 T02160057  RH  036%=      5-min Rain = 0
KVA1 240646Z 19006KT 22/06 A2989 RMK A01 T02170056  RH  035%=      5-min Rain = 0
KVA1 240647Z 20007KT 22/05 A2989 RMK A01 T02180052  RH  034%=      5-min Rain = 0
KVA1 240648Z 21006KT 22/05 A2989 RMK A01 T02230047  RH  032%=      5-min Rain = 0
KVA1 240649Z 20005KT 23/05 A2989 RMK A01 T02260048  RH  031%=      5-min Rain = 0
KVA1 240650Z 20005KT 23/05 A2989 RMK A01 T02250047  RH  031%=      5-min Rain = 0
KVA1 240651Z 20007KT 23/05 A2989 RMK A01 T02250052  RH  032%=      5-min Rain = 0
KVA1 240652Z 20007KT 23/05 A2989 RMK A01 T02250053  RH  033%=      5-min Rain = 0
KVA1 240653Z 19008KT 23/05 A2989 RMK A01 T02250053  RH  033%=      5-min Rain = 0
KVA1 240654Z 19007KT 22/05 A2989 RMK A01 T02240053  RH  033%=      5-min Rain = 0
KVA1 240655Z 19007KT 22/05 A2989 RMK A01 T02240053  RH  033%=      5-min Rain = 0
KVA1 240656Z 20007KT 22/05 A2989 RMK A01 T02240054  RH  033%=      5-min Rain = 0
KVA1 240657Z 20007KT 22/05 A2989 RMK A01 T02230054  RH  033%=      5-min Rain = 0
KVA1 240658Z 20007KT 22/05 A2989 RMK A01 T02220053  RH  033%=      5-min Rain = 0
KVA1 240659Z 20007KT 22/05 A2989 RMK A01 T02210052  RH  033%=      5-min Rain = 0
KVA1 240700Z 20006KT 22/05 A2989 RMK A01 T02210052  RH  033%=      5-min Rain = 0
KVA1 240701Z 21005KT 22/05 A2989 RMK A01 T02210052  RH  033%=      5-min Rain = 0
KVA1 240702Z 20006KT 22/05 A2989 RMK A01 T02200053  RH  034%=      5-min Rain = 0
KVA1 240703Z 19007KT 22/05 A2989 RMK A01 T02190054  RH  034%=      5-min Rain = 0
KVA1 240704Z 18006KT 22/06 A2989 RMK A01 T02190055  RH  034%=      5-min Rain = 0
KVA1 240705Z 19005KT 22/06 A2989 RMK A01 T02190056  RH  035%=      5-min Rain = 0
KVA1 240706Z 18006KT 22/06 A2989 RMK A01 T02190056  RH  035%=      5-min Rain = 0
KVA1 240707Z 18006KT 22/06 A2988 RMK A01 T02190057  RH  035%=      5-min Rain = 0
KVA1 240708Z 18007KT 22/06 A2988 RMK A01 T02190057  RH  035%=      5-min Rain = 0
KVA1 240709Z 18005KT 22/06 A2988 RMK A01 T02190056  RH  035%=      5-min Rain = 0
KVA1 240710Z 19005KT 22/06 A2988 RMK A01 T02190056  RH  035%=      5-min Rain = 0
KVA1 240711Z 20005KT 22/06 A2988 RMK A01 T02190056  RH  035%=      5-min Rain = 0
KVA1 240712Z 19005KT 22/06 A2988 RMK A01 T02190057  RH  035%=      5-min Rain = 0
KVA1 240713Z 18006KT 22/06 A2988 RMK A01 T02190056  RH  035%=      5-min Rain = 0
KVA1 240714Z 18005KT 22/06 A2988 RMK A01 T02180056  RH  035%=      5-min Rain = 0
KVA1 240715Z 18006KT 22/06 A2988 RMK A01 T02180056  RH  035%=      5-min Rain = 0
KVA1 240716Z 19006KT 22/06 A2988 RMK A01 T02180057  RH  035%=      5-min Rain = 0
KVA1 240717Z 19006KT 22/06 A2988 RMK A01 T02170058  RH  035%=      5-min Rain = 0
KVA1 240718Z 19006KT 22/06 A2988 RMK A01 T02180059  RH  035%=      5-min Rain = 0
KVA1 240719Z 18007KT 22/06 A2988 RMK A01 T02170058  RH  035%=      5-min Rain = 0
KVA1 240720Z 18007KT 22/06 A2988 RMK A01 T02160057  RH  036%=      5-min Rain = 0
KVA1 240721Z 18007KT 22/06 A2988 RMK A01 T02150057  RH  036%=      5-min Rain = 0
KVA1 240722Z 18006KT 21/06 A2989 RMK A01 T02140057  RH  036%=      5-min Rain = 0
KVA1 240723Z 17006KT 21/06 A2989 RMK A01 T02130058  RH  036%=      5-min Rain = 0
KVA1 240724Z 18005KT 21/06 A2989 RMK A01 T02130057  RH  036%=      5-min Rain = 0
KVA1 240725Z 18004KT 21/06 A2989 RMK A01 T02130057  RH  036%=      5-min Rain = 0
KVA1 240726Z 18004KT 21/06 A2989 RMK A01 T02120056  RH  036%=      5-min Rain = 0
KVA1 240727Z 18004KT 21/06 A2989 RMK A01 T02110056  RH  036%=      5-min Rain = 0
KVA1 240728Z 17004KT 21/06 A2989 RMK A01 T02110056  RH  036%=      5-min Rain = 0
KVA1 240729Z 18004KT 21/06 A2989 RMK A01 T02100055  RH  036%=      5-min Rain = 0
KVA1 240730Z 18006KT 21/05 A2989 RMK A01 T02090053  RH  036%=      5-min Rain = 0
KVA1 240731Z 18005KT 21/05 A2989 RMK A01 T02070052  RH  036%=      5-min Rain = 0
KVA1 240732Z 18006KT 21/05 A2989 RMK A01 T02060052  RH  036%=      5-min Rain = 0
KVA1 240733Z 18006KT 21/05 A2989 RMK A01 T02060052  RH  036%=      5-min Rain = 0
KVA1 240734Z 19003KT 21/05 A2989 RMK A01 T02060052  RH  036%=      5-min Rain = 0
KVA1 240735Z 19004KT 21/05 A2989 RMK A01 T02050052  RH  037%=      5-min Rain = 0
KVA1 240736Z 20005KT 20/05 A2989 RMK A01 T02040052  RH  037%=      5-min Rain = 0
KVA1 240737Z 18005KT 20/05 A2988 RMK A01 T02040051  RH  037%=      5-min Rain = 0
KVA1 240738Z 19004KT 20/05 A2988 RMK A01 T02040051  RH  037%=      5-min Rain = 0
KVA1 240739Z 21005KT 20/05 A2988 RMK A01 T02040050  RH  036%=      5-min Rain = 0
KVA1 240740Z 19005KT 21/05 A2988 RMK A01 T02050046  RH  035%=      5-min Rain = 0
KVA1 240741Z 18004KT 21/04 A2988 RMK A01 T02070042  RH  034%=      5-min Rain = 0
KVA1 240742Z 20004KT 21/04 A2988 RMK A01 T02090036  RH  032%=      5-min Rain = 0
KVA1 240743Z 19004KT 21/04 A2988 RMK A01 T02100038  RH  032%=      5-min Rain = 0
KVA1 240744Z 19005KT 21/04 A2988 RMK A01 T02100037  RH  032%=      5-min Rain = 0
KVA1 240745Z 18005KT 21/04 A2988 RMK A01 T02100038  RH  032%=      5-min Rain = 0
KVA1 240746Z 19004KT 21/03 A2988 RMK A01 T02090034  RH  032%=      5-min Rain = 0
KVA1 240747Z 20003KT 21/03 A2988 RMK A01 T02100031  RH  031%=      5-min Rain = 0
KVA1 240748Z 18004KT 21/03 A2988 RMK A01 T02110031  RH  031%=      5-min Rain = 0
KVA1 240749Z 20002KT 21/03 A2988 RMK A01 T02110029  RH  030%=      5-min Rain = 0
KVA1 240750Z 20003KT 21/02 A2988 RMK A01 T02120024  RH  029%=      5-min Rain = 0
KVA1 240751Z 17003KT 21/02 A2988 RMK A01 T02140017  RH  027%=      5-min Rain = 0
KVA1 240752Z 17002KT 22/01 A2988 RMK A01 T02150013  RH  026%=      5-min Rain = 0
KVA1 240753Z 17003KT 22/02 A2988 RMK A01 T02160017  RH  027%=      5-min Rain = 0
KVA1 240754Z 17004KT 22/02 A2988 RMK A01 T02150020  RH  027%=      5-min Rain = 0
KVA1 240755Z 16003KT 22/02 A2988 RMK A01 T02150021  RH  028%=      5-min Rain = 0
KVA1 240756Z 15003KT 21/02 A2988 RMK A01 T02140022  RH  028%=      5-min Rain = 0
KVA1 240757Z 15002KT 21/02 A2988 RMK A01 T02140020  RH  028%=      5-min Rain = 0
KVA1 240758Z 13002KT 21/01 A2988 RMK A01 T02140014  RH  026%=      5-min Rain = 0
KVA1 240759Z 15003KT 22/01 A2988 RMK A01 T02150014  RH  026%=      5-min Rain = 0
KVA1 240800Z 15003KT 22/01 A2988 RMK A01 T02160009  RH  025%=      5-min Rain = 0
KVA1 240801Z 13003KT 22/00 A2988 RMK A01 T02170004  RH  024%=      5-min Rain = 0
KVA1 240802Z 14002KT 22/01 A2988 RMK A01 T02170008  RH  025%=      5-min Rain = 0
KVA1 240803Z 16002KT 22/01 A2988 RMK A01 T02160006  RH  025%=      5-min Rain = 0
KVA1 240804Z 17003KT 22/M00 A2988 RMK A01 T02151001  RH  024%=      5-min Rain = 0
KVA1 240805Z 16003KT 22/00 A2988 RMK A01 T02150001  RH  024%=      5-min Rain = 0
KVA1 240806Z 14003KT 22/M00 A2988 RMK A01 T02151001  RH  024%=      5-min Rain = 0
KVA1 240807Z 15003KT 22/M00 A2988 RMK A01 T02151001  RH  024%=      5-min Rain = 0
KVA1 240808Z 18002KT 22/M02 A2988 RMK A01 T02151019  RH  021%=      5-min Rain = 0
KVA1 240809Z 17003KT 22/M04 A2988 RMK A01 T02181041  RH  017%=      5-min Rain = 0
KVA1 240810Z 17002KT 22/M04 A2988 RMK A01 T02231041  RH  017%=      5-min Rain = 0
KVA1 240811Z 16004KT 23/M01 A2988 RMK A01 T02271011  RH  020%=      5-min Rain = 0
KVA1 240812Z 16004KT 23/M01 A2988 RMK A01 T02251010  RH  021%=      5-min Rain = 0
KVA1 240813Z 17007KT 22/M01 A2988 RMK A01 T02231009  RH  021%=      5-min Rain = 0
KVA1 240814Z 17007KT 22/M01 A2988 RMK A01 T02201005  RH  022%=      5-min Rain = 0
KVA1 240815Z 16008KT 22/M01 A2988 RMK A01 T02181006  RH  022%=      5-min Rain = 0
KVA1 240816Z 15007KT 22/M03 A2988 RMK A01 T02181028  RH  019%=      5-min Rain = 0
KVA1 240817Z 16005KT 22/M05 A2988 RMK A01 T02231049  RH  016%=      5-min Rain = 0
KVA1 240818Z 18007KT 23/M04 A2988 RMK A01 T02281040  RH  016%=      5-min Rain = 0
KVA1 240819Z 18007KT 23/M03 A2988 RMK A01 T02291031  RH  017%=      5-min Rain = 0
KVA1 240820Z 20006KT 23/M04 A2988 RMK A01 T02271035  RH  017%=      5-min Rain = 0
KVA1 240821Z 19005KT 23/M04 A2988 RMK A01 T02281042  RH  016%=      5-min Rain = 0
KVA1 240822Z 20004KT 23/M04 A2988 RMK A01 T02311042  RH  016%=      5-min Rain = 0
KVA1 240823Z 21004KT 23/M04 A2988 RMK A01 T02311040  RH  016%=      5-min Rain = 0
KVA1 240824Z 20005KT 23/M04 A2988 RMK A01 T02301039  RH  016%=      5-min Rain = 0
KVA1 240825Z 20005KT 23/M04 A2988 RMK A01 T02281037  RH  017%=      5-min Rain = 0
KVA1 240826Z 19005KT 23/M04 A2988 RMK A01 T02261038  RH  017%=      5-min Rain = 0
KVA1 240827Z 20005KT 22/M04 A2988 RMK A01 T02241041  RH  017%=      5-min Rain = 0
KVA1 240828Z 19005KT 22/M04 A2988 RMK A01 T02231039  RH  017%=      5-min Rain = 0
KVA1 240829Z 19004KT 22/M04 A2988 RMK A01 T02201038  RH  017%=      5-min Rain = 0
KVA1 240830Z 19004KT 22/M04 A2988 RMK A01 T02181039  RH  018%=      5-min Rain = 0
KVA1 240831Z 21005KT 22/M04 A2988 RMK A01 T02171041  RH  017%=      5-min Rain = 0
KVA1 240832Z 20006KT 22/M04 A2988 RMK A01 T02161044  RH  017%=      5-min Rain = 0
KVA1 240833Z 19004KT 22/M05 A2988 RMK A01 T02161047  RH  017%=      5-min Rain = 0
KVA1 240834Z 18007KT 22/M05 A2988 RMK A01 T02171048  RH  017%=      5-min Rain = 0
KVA1 240835Z 18007KT 22/M05 A2988 RMK A01 T02171052  RH  016%=      5-min Rain = 0
KVA1 240836Z 19007KT 22/M05 A2988 RMK A01 T02191052  RH  016%=      5-min Rain = 0
KVA1 240837Z 20006KT 22/M05 A2988 RMK A01 T02201052  RH  016%=      5-min Rain = 0
KVA1 240838Z 20005KT 22/M05 A2988 RMK A01 T02201052  RH  016%=      5-min Rain = 0
KVA1 240839Z 20006KT 22/M05 A2988 RMK A01 T02181051  RH  016%=      5-min Rain = 0
KVA1 240840Z 19006KT 22/M05 A2988 RMK A01 T02161051  RH  016%=      5-min Rain = 0
KVA1 240841Z 19006KT 22/M05 A2988 RMK A01 T02161051  RH  016%=      5-min Rain = 0
KVA1 240842Z 19007KT 22/M05 A2988 RMK A01 T02171052  RH  016%=      5-min Rain = 0
KVA1 240843Z 18006KT 22/M05 A2988 RMK A01 T02201052  RH  016%=      5-min Rain = 0
KVA1 240844Z 19006KT 22/M05 A2988 RMK A01 T02231053  RH  015%=      5-min Rain = 0
KVA1 240845Z 18007KT 23/M05 A2988 RMK A01 T02251053  RH  015%=      5-min Rain = 0
KVA1 240846Z 18005KT 23/M05 A2988 RMK A01 T02251053  RH  015%=      5-min Rain = 0
KVA1 240847Z 17004KT 23/M05 A2989 RMK A01 T02251052  RH  015%=      5-min Rain = 0
KVA1 240848Z 16005KT 23/M05 A2989 RMK A01 T02251052  RH  015%=      5-min Rain = 0
KVA1 240849Z 16004KT 23/M05 A2989 RMK A01 T02251053  RH  015%=      5-min Rain = 0
KVA1 240850Z 17005KT 23/M05 A2989 RMK A01 T02261053  RH  015%=      5-min Rain = 0
KVA1 240851Z 18006KT 23/M05 A2989 RMK A01 T02261052  RH  015%=      5-min Rain = 0
KVA1 240852Z 17007KT 23/M05 A2989 RMK A01 T02251052  RH  015%=      5-min Rain = 0
KVA1 240853Z 17008KT 22/M05 A2989 RMK A01 T02241051  RH  015%=      5-min Rain = 0
KVA1 240854Z 16007KT 22/M05 A2989 RMK A01 T02241050  RH  016%=      5-min Rain = 0
KVA1 240855Z 18007KT 22/M05 A2989 RMK A01 T02241049  RH  016%=      5-min Rain = 0
KVA1 240856Z 18006KT 22/M05 A2989 RMK A01 T02231048  RH  016%=      5-min Rain = 0
KVA1 240857Z 19007KT 22/M05 A2989 RMK A01 T02211048  RH  016%=      5-min Rain = 0
KVA1 240858Z 20006KT 22/M05 A2989 RMK A01 T02211047  RH  016%=      5-min Rain = 0
KVA1 240859Z 20007KT 22/M05 A2989 RMK A01 T02221047  RH  016%=      5-min Rain = 0
KVA1 240900Z 21006KT 22/M05 A2989 RMK A01 T02221046  RH  016%=      5-min Rain = 0
KVA1 240901Z 22006KT 22/M05 A2989 RMK A01 T02211046  RH  016%=      5-min Rain = 0
KVA1 240902Z 22005KT 22/M05 A2989 RMK A01 T02201046  RH  016%=      5-min Rain = 0
KVA1 240903Z 20004KT 22/M05 A2989 RMK A01 T02191046  RH  016%=      5-min Rain = 0
KVA1 240904Z 18005KT 22/M05 A2989 RMK A01 T02181047  RH  017%=      5-min Rain = 0
KVA1 240905Z 19006KT 22/M05 A2989 RMK A01 T02171048  RH  017%=      5-min Rain = 0
KVA1 240906Z 20007KT 22/M05 A2989 RMK A01 T02181048  RH  016%=      5-min Rain = 0
KVA1 240907Z 21008KT 22/M05 A2989 RMK A01 T02201048  RH  016%=      5-min Rain = 0
KVA1 240908Z 21007KT 22/M05 A299 RMK A01 T02221047  RH  016%=      5-min Rain = 0
KVA1 240909Z 20006KT 22/M05 A299 RMK A01 T02201047  RH  016%=      5-min Rain = 0
KVA1 240910Z 20007KT 22/M05 A299 RMK A01 T02181047  RH  016%=      5-min Rain = 0
KVA1 240911Z 20005KT 22/M05 A2989 RMK A01 T02191046  RH  017%=      5-min Rain = 0
KVA1 240912Z 19005KT 22/M05 A299 RMK A01 T02231045  RH  016%=      5-min Rain = 0
KVA1 240913Z 20004KT 23/M04 A299 RMK A01 T02261044  RH  016%=      5-min Rain = 0
KVA1 240914Z 20004KT 23/M04 A299 RMK A01 T02271044  RH  016%=      5-min Rain = 0
KVA1 240915Z 20004KT 23/M04 A299 RMK A01 T02261044  RH  016%=      5-min Rain = 0
KVA1 240916Z 20005KT 23/M04 A299 RMK A01 T02261044  RH  016%=      5-min Rain = 0
KVA1 240917Z 20005KT 23/M04 A299 RMK A01 T02251044  RH  016%=      5-min Rain = 0
KVA1 240918Z 22006KT 22/M05 A299 RMK A01 T02231045  RH  016%=      5-min Rain = 0
KVA1 240919Z 23006KT 22/M05 A299 RMK A01 T02221045  RH  016%=      5-min Rain = 0
KVA1 240920Z 22006KT 22/M04 A299 RMK A01 T02211044  RH  017%=      5-min Rain = 0
KVA1 240921Z 23007KT 22/M05 A299 RMK A01 T02211045  RH  017%=      5-min Rain = 0
KVA1 240922Z 24006KT 22/M04 A299 RMK A01 T02231043  RH  016%=      5-min Rain = 0
KVA1 240923Z 23004KT 22/M04 A299 RMK A01 T02241044  RH  016%=      5-min Rain = 0
KVA1 240924Z 25004KT 23/M04 A299 RMK A01 T02251044  RH  016%=      5-min Rain = 0
KVA1 240925Z 24004KT 23/M04 A299 RMK A01 T02251044  RH  016%=      5-min Rain = 0
KVA1 240926Z 24005KT 22/M04 A299 RMK A01 T02241044  RH  016%=      5-min Rain = 0
KVA1 240927Z 25007KT 22/M04 A299 RMK A01 T02231044  RH  016%=      5-min Rain = 0
KVA1 240928Z 25007KT 22/M04 A299 RMK A01 T02231043  RH  017%=      5-min Rain = 0
KVA1 240929Z 25007KT 22/M04 A299 RMK A01 T02241042  RH  017%=      5-min Rain = 0
KVA1 240930Z 25006KT 23/M04 A299 RMK A01 T02261041  RH  016%=      5-min Rain = 0
KVA1 240931Z 25006KT 23/M04 A299 RMK A01 T02271041  RH  016%=      5-min Rain = 0
KVA1 240932Z 24007KT 23/M04 A299 RMK A01 T02291041  RH  016%=      5-min Rain = 0
KVA1 240933Z 24006KT 23/M04 A299 RMK A01 T02291041  RH  016%=      5-min Rain = 0
KVA1 240934Z 22005KT 23/M04 A299 RMK A01 T02311041  RH  016%=      5-min Rain = 0
KVA1 240935Z 23005KT 23/M04 A299 RMK A01 T02311040  RH  016%=      5-min Rain = 0
KVA1 240936Z 24003KT 23/M04 A2991 RMK A01 T02301039  RH  016%=      5-min Rain = 0
KVA1 240937Z 25005KT 23/M04 A2991 RMK A01 T02281040  RH  016%=      5-min Rain = 0
KVA1 240938Z 21005KT 23/M04 A2991 RMK A01 T02261039  RH  017%=      5-min Rain = 0
KVA1 240939Z 21006KT 22/M03 A2991 RMK A01 T02231032  RH  018%=      5-min Rain = 0
KVA1 240940Z 23006KT 22/M02 A2991 RMK A01 T02231019  RH  020%=      5-min Rain = 0
KVA1 240941Z 22006KT 23/M01 A2991 RMK A01 T02251014  RH  020%=      5-min Rain = 0
KVA1 240942Z 21005KT 22/M01 A2991 RMK A01 T02221013  RH  021%=      5-min Rain = 0
KVA1 240943Z 19004KT 22/M01 A2991 RMK A01 T02191014  RH  021%=      5-min Rain = 0
KVA1 240944Z 18007KT 22/M01 A299 RMK A01 T02161014  RH  021%=      5-min Rain = 0
KVA1 240945Z 18007KT 21/M02 A299 RMK A01 T02131015  RH  022%=      5-min Rain = 0
KVA1 240946Z 19007KT 21/M02 A299 RMK A01 T02081015  RH  022%=      5-min Rain = 0
KVA1 240947Z 22005KT 21/M01 A2991 RMK A01 T02061012  RH  023%=      5-min Rain = 0
KVA1 240948Z 23005KT 21/M01 A2991 RMK A01 T02051013  RH  023%=      5-min Rain = 0
KVA1 240949Z 22005KT 20/M01 A2991 RMK A01 T02031014  RH  023%=      5-min Rain = 0
KVA1 240950Z 20005KT 20/M01 A2991 RMK A01 T02011014  RH  023%=      5-min Rain = 0
KVA1 240951Z 18007KT 20/M01 A2991 RMK A01 T02001014  RH  024%=      5-min Rain = 0
KVA1 240952Z 18006KT 20/M01 A299 RMK A01 T01981014  RH  024%=      5-min Rain = 0
KVA1 240953Z 19006KT 20/M01 A2991 RMK A01 T01961013  RH  024%=      5-min Rain = 0
KVA1 240954Z 19006KT 20/M01 A2991 RMK A01 T01961011  RH  025%=      5-min Rain = 0
KVA1 240955Z 19007KT 20/M01 A2991 RMK A01 T01971010  RH  025%=      5-min Rain = 0
KVA1 240956Z 19007KT 20/M01 A2991 RMK A01 T01981009  RH  025%=      5-min Rain = 0
KVA1 240957Z 19006KT 20/M01 A2991 RMK A01 T01981010  RH  025%=      5-min Rain = 0
KVA1 240958Z 21004KT 20/M01 A2991 RMK A01 T01981010  RH  025%=      5-min Rain = 0
KVA1 240959Z 24005KT 20/M01 A2991 RMK A01 T01971011  RH  025%=      5-min Rain = 0
KVA1 241000Z 21005KT 20/M01 A2991 RMK A01 T01951013  RH  025%=      5-min Rain = 0
KVA1 241001Z 19006KT 19/M01 A2991 RMK A01 T01931013  RH  025%=      5-min Rain = 0
KVA1 241002Z 19007KT 19/M01 A2991 RMK A01 T01931008  RH  026%=      5-min Rain = 0
KVA1 241003Z 20007KT 20/00 A2991 RMK A01 T01950000  RH  027%=      5-min Rain = 0
KVA1 241004Z 21007KT 20/01 A2991 RMK A01 T01980006  RH  028%=      5-min Rain = 0
KVA1 241005Z 21007KT 20/01 A2991 RMK A01 T01990011  RH  029%=      5-min Rain = 0
KVA1 241006Z 20008KT 20/02 A2991 RMK A01 T01990017  RH  030%=      5-min Rain = 0
KVA1 241007Z 19008KT 20/02 A2991 RMK A01 T02000023  RH  031%=      5-min Rain = 0
KVA1 241008Z 19008KT 20/03 A2991 RMK A01 T02000029  RH  032%=      5-min Rain = 0
KVA1 241009Z 19006KT 20/04 A2991 RMK A01 T02030035  RH  033%=      5-min Rain = 0
KVA1 241010Z 19006KT 21/03 A2991 RMK A01 T02050032  RH  032%=      5-min Rain = 0
KVA1 241011Z 20006KT 21/03 A2991 RMK A01 T02060034  RH  032%=      5-min Rain = 0
KVA1 241012Z 22007KT 21/04 A2991 RMK A01 T02050038  RH  033%=      5-min Rain = 0
KVA1 241013Z 22006KT 20/04 A2991 RMK A01 T02040041  RH  034%=      5-min Rain = 0
KVA1 241014Z 21006KT 20/04 A2991 RMK A01 T02030044  RH  035%=      5-min Rain = 0
KVA1 241015Z 20007KT 20/05 A2991 RMK A01 T02030048  RH  036%=      5-min Rain = 0
KVA1 241016Z 19006KT 20/05 A2991 RMK A01 T02030051  RH  037%=      5-min Rain = 0
KVA1 241017Z 19005KT 20/05 A2991 RMK A01 T02030051  RH  037%=      5-min Rain = 0
KVA1 241018Z 20005KT 20/05 A2991 RMK A01 T02020049  RH  037%=      5-min Rain = 0
KVA1 241019Z 21006KT 20/05 A2991 RMK A01 T02010049  RH  037%=      5-min Rain = 0
KVA1 241020Z 21006KT 20/05 A2991 RMK A01 T01990052  RH  038%=      5-min Rain = 0
KVA1 241021Z 20005KT 20/05 A2991 RMK A01 T01980054  RH  039%=      5-min Rain = 0
KVA1 241022Z 21006KT 20/06 A2991 RMK A01 T01980055  RH  039%=      5-min Rain = 0
KVA1 241023Z 21005KT 20/06 A2991 RMK A01 T01970057  RH  040%=      5-min Rain = 0
KVA1 241024Z 20006KT 20/06 A299 RMK A01 T01960058  RH  041%=      5-min Rain = 0
KVA1 241025Z 21006KT 19/06 A299 RMK A01 T01940059  RH  041%=      5-min Rain = 0
KVA1 241026Z 22006KT 19/06 A2991 RMK A01 T01940059  RH  041%=      5-min Rain = 0
KVA1 241027Z 21007KT 19/06 A2991 RMK A01 T01940061  RH  042%=      5-min Rain = 0
KVA1 241028Z 21006KT 19/06 A299 RMK A01 T01930064  RH  043%=      5-min Rain = 0
KVA1 241029Z 21005KT 19/07 A299 RMK A01 T01930065  RH  043%=      5-min Rain = 0
KVA1 241030Z 24004KT 19/06 A299 RMK A01 T01930064  RH  043%=      5-min Rain = 0
KVA1 241031Z 24003KT 19/06 A2991 RMK A01 T01910063  RH  043%=      5-min Rain = 0
KVA1 241032Z 28003KT 19/06 A2991 RMK A01 T01890062  RH  044%=      5-min Rain = 0
KVA1 241033Z 26003KT 19/06 A2991 RMK A01 T01880062  RH  044%=      5-min Rain = 0
KVA1 241034Z 24004KT 19/06 A2991 RMK A01 T01870063  RH  044%=      5-min Rain = 0
KVA1 241035Z 21005KT 19/06 A2991 RMK A01 T01860062  RH  044%=      5-min Rain = 0
KVA1 241036Z 21004KT 19/06 A299 RMK A01 T01860063  RH  045%=      5-min Rain = 0
KVA1 241037Z 23003KT 19/06 A299 RMK A01 T01860064  RH  045%=      5-min Rain = 0
KVA1 241038Z 23005KT 19/06 A299 RMK A01 T01860063  RH  045%=      5-min Rain = 0
KVA1 241039Z 24005KT 18/06 A2991 RMK A01 T01840062  RH  045%=      5-min Rain = 0
KVA1 241040Z 24005KT 18/06 A2991 RMK A01 T01830062  RH  045%=      5-min Rain = 0
KVA1 241041Z 22004KT 18/06 A2991 RMK A01 T01820061  RH  045%=      5-min Rain = 0
KVA1 241042Z 22006KT 18/06 A2991 RMK A01 T01810062  RH  045%=      5-min Rain = 0
KVA1 241043Z 21006KT 18/06 A2991 RMK A01 T01800062  RH  046%=      5-min Rain = 0
KVA1 241044Z 22008KT 18/06 A2991 RMK A01 T01810063  RH  046%=      5-min Rain = 0
KVA1 241045Z 21008KT 18/06 A2991 RMK A01 T01810064  RH  046%=      5-min Rain = 0
KVA1 241046Z 22008KT 18/07 A2991 RMK A01 T01810065  RH  046%=      5-min Rain = 0
KVA1 241047Z 21008KT 18/06 A2991 RMK A01 T01820064  RH  046%=      5-min Rain = 0
KVA1 241048Z 20009KT 18/06 A2991 RMK A01 T01810064  RH  046%=      5-min Rain = 0
KVA1 241049Z 20010KT 18/07 A2991 RMK A01 T01820065  RH  046%=      5-min Rain = 0
KVA1 241050Z 20009KT 18/06 A2991 RMK A01 T01840062  RH  045%=      5-min Rain = 0
KVA1 241051Z 21007KT 19/07 A2991 RMK A01 T01860065  RH  045%=      5-min Rain = 0
KVA1 241052Z 21006KT 19/07 A2991 RMK A01 T01850065  RH  045%=      5-min Rain = 0
KVA1 241053Z 21006KT 18/06 A2991 RMK A01 T01830063  RH  045%=      5-min Rain = 0
KVA1 241054Z 21006KT 18/06 A2991 RMK A01 T01810061  RH  045%=      5-min Rain = 0
KVA1 241055Z 21007KT 18/06 A2991 RMK A01 T01800060  RH  045%=      5-min Rain = 0
KVA1 241056Z 22006KT 18/06 A2991 RMK A01 T01800059  RH  045%=      5-min Rain = 0
KVA1 241057Z 22006KT 18/06 A2991 RMK A01 T01790060  RH  045%=      5-min Rain = 0
KVA1 241058Z 22006KT 18/06 A2991 RMK A01 T01790059  RH  045%=      5-min Rain = 0
KVA1 241059Z 23006KT 18/06 A2991 RMK A01 T01790058  RH  045%=      5-min Rain = 0
KVA1 241100Z 22007KT 18/06 A2991 RMK A01 T01780058  RH  045%=      5-min Rain = 0
KVA1 241101Z 20007KT 18/06 A2991 RMK A01 T01780056  RH  045%=      5-min Rain = 0
KVA1 241102Z 20008KT 18/05 A2991 RMK A01 T01780052  RH  043%=      5-min Rain = 0
KVA1 241103Z 21006KT 18/05 A2991 RMK A01 T01800050  RH  042%=      5-min Rain = 0
KVA1 241104Z 21006KT 18/05 A2991 RMK A01 T01810051  RH  042%=      5-min Rain = 0
KVA1 241105Z 21007KT 18/05 A2991 RMK A01 T01820052  RH  042%=      5-min Rain = 0
KVA1 241106Z 20007KT 18/05 A2991 RMK A01 T01820052  RH  042%=      5-min Rain = 0
KVA1 241107Z 20007KT 18/05 A2991 RMK A01 T01830054  RH  043%=      5-min Rain = 0
KVA1 241108Z 20007KT 18/05 A2991 RMK A01 T01840053  RH  042%=      5-min Rain = 0
KVA1 241109Z 20007KT 19/05 A2991 RMK A01 T01850051  RH  041%=      5-min Rain = 0
KVA1 241110Z 20008KT 19/05 A2991 RMK A01 T01850048  RH  040%=      5-min Rain = 0
KVA1 241111Z 20008KT 19/05 A2991 RMK A01 T01860047  RH  040%=      5-min Rain = 0
KVA1 241112Z 20007KT 19/05 A2991 RMK A01 T01870048  RH  040%=      5-min Rain = 0
KVA1 241113Z 21006KT 19/05 A2991 RMK A01 T01880049  RH  040%=      5-min Rain = 0
KVA1 241114Z 20007KT 19/05 A2991 RMK A01 T01880049  RH  040%=      5-min Rain = 0
KVA1 241115Z 20007KT 19/05 A2991 RMK A01 T01870048  RH  040%=      5-min Rain = 0
KVA1 241116Z 20007KT 19/05 A2991 RMK A01 T01860047  RH  040%=      5-min Rain = 0
KVA1 241117Z 20007KT 19/05 A2991 RMK A01 T01850047  RH  040%=      5-min Rain = 0
KVA1 241118Z 20007KT 18/05 A2991 RMK A01 T01840047  RH  040%=      5-min Rain = 0
KVA1 241119Z 19007KT 18/05 A2991 RMK A01 T01840047  RH  040%=      5-min Rain = 0
KVA1 241120Z 20007KT 18/05 A2991 RMK A01 T01840047  RH  040%=      5-min Rain = 0
KVA1 241121Z 20007KT 18/05 A2991 RMK A01 T01840047  RH  040%=      5-min Rain = 0
KVA1 241122Z 19008KT 18/05 A2991 RMK A01 T01830046  RH  040%=      5-min Rain = 0
KVA1 241123Z 19008KT 18/05 A2991 RMK A01 T01810046  RH  041%=      5-min Rain = 0
KVA1 241124Z 19008KT 18/05 A2991 RMK A01 T01800046  RH  041%=      5-min Rain = 0
KVA1 241125Z 19007KT 18/05 A2991 RMK A01 T01800046  RH  041%=      5-min Rain = 0
KVA1 241126Z 19007KT 18/05 A2991 RMK A01 T01800047  RH  041%=      5-min Rain = 0
KVA1 241127Z 19006KT 18/05 A2991 RMK A01 T01800048  RH  042%=      5-min Rain = 0
KVA1 241128Z 18007KT 18/05 A2991 RMK A01 T01800049  RH  042%=      5-min Rain = 0
KVA1 241129Z 19006KT 18/05 A2991 RMK A01 T01800049  RH  042%=      5-min Rain = 0
KVA1 241130Z 18007KT 18/05 A2991 RMK A01 T01790049  RH  042%=      5-min Rain = 0
KVA1 241131Z 18007KT 18/05 A2991 RMK A01 T01790049  RH  042%=      5-min Rain = 0
KVA1 241132Z 18007KT 18/05 A2991 RMK A01 T01780049  RH  043%=      5-min Rain = 0
KVA1 241133Z 18007KT 18/05 A2991 RMK A01 T01770049  RH  043%=      5-min Rain = 0
KVA1 241134Z 18007KT 18/05 A2991 RMK A01 T01770050  RH  043%=      5-min Rain = 0
KVA1 241135Z 18007KT 18/05 A2991 RMK A01 T01760050  RH  043%=      5-min Rain = 0
KVA1 241136Z 18007KT 18/05 A2991 RMK A01 T01760049  RH  043%=      5-min Rain = 0
KVA1 241137Z 18006KT 18/05 A2991 RMK A01 T01760049  RH  043%=      5-min Rain = 0
KVA1 241138Z 18006KT 18/05 A2991 RMK A01 T01750048  RH  043%=      5-min Rain = 0
KVA1 241139Z 18006KT 18/05 A2991 RMK A01 T01750046  RH  042%=      5-min Rain = 0
KVA1 241140Z 18007KT 18/04 A2991 RMK A01 T01750044  RH  042%=      5-min Rain = 0
KVA1 241141Z 18007KT 18/04 A2991 RMK A01 T01750041  RH  041%=      5-min Rain = 0
KVA1 241142Z 19007KT 18/04 A2991 RMK A01 T01760040  RH  040%=      5-min Rain = 0
KVA1 241143Z 19007KT 18/04 A2991 RMK A01 T01760038  RH  040%=      5-min Rain = 0
KVA1 241144Z 18008KT 18/04 A2991 RMK A01 T01770037  RH  039%=      5-min Rain = 0
KVA1 241145Z 19007KT 18/04 A2991 RMK A01 T01770037  RH  039%=      5-min Rain = 0
KVA1 241146Z 18006KT 18/04 A2991 RMK A01 T01770036  RH  039%=      5-min Rain = 0
KVA1 241147Z 18005KT 18/04 A2991 RMK A01 T01770035  RH  039%=      5-min Rain = 0
KVA1 241148Z 19006KT 18/03 A2991 RMK A01 T01770034  RH  039%=      5-min Rain = 0
KVA1 241149Z 19007KT 18/03 A2991 RMK A01 T01770031  RH  038%=      5-min Rain = 0
KVA1 241150Z 19008KT 18/03 A2991 RMK A01 T01780029  RH  037%=      5-min Rain = 0
KVA1 241151Z 18009KT 18/03 A2991 RMK A01 T01780025  RH  036%=      5-min Rain = 0
KVA1 241152Z 18008KT 18/02 A2992 RMK A01 T01790024  RH  036%=      5-min Rain = 0
KVA1 241153Z 19008KT 18/02 A2992 RMK A01 T01790022  RH  035%=      5-min Rain = 0
KVA1 241154Z 19007KT 18/02 A2992 RMK A01 T01790020  RH  034%=      5-min Rain = 0
KVA1 241155Z 19007KT 18/02 A2992 RMK A01 T01800019  RH  034%=      5-min Rain = 0
KVA1 241156Z 18007KT 18/02 A2992 RMK A01 T01800019  RH  034%=      5-min Rain = 0
KVA1 241157Z 19007KT 18/02 A2992 RMK A01 T01800018  RH  034%=      5-min Rain = 0
KVA1 241158Z 18007KT 18/02 A2992 RMK A01 T01800016  RH  033%=      5-min Rain = 0
KVA1 241159Z 18008KT 18/02 A2992 RMK A01 T01800015  RH  033%=      5-min Rain = 0
KVA1 241200Z 18007KT 18/01 A2992 RMK A01 T01800014  RH  033%=      5-min Rain = 0
KVA1 241201Z 18007KT 18/01 A2992 RMK A01 T01800013  RH  032%=      5-min Rain = 0
KVA1 241202Z 18006KT 18/01 A2992 RMK A01 T01810013  RH  032%=      5-min Rain = 0
KVA1 241203Z 17008KT 18/01 A2992 RMK A01 T01810013  RH  032%=      5-min Rain = 0
KVA1 241204Z 17007KT 18/01 A2992 RMK A01 T01810011  RH  032%=      5-min Rain = 0
KVA1 241205Z 17007KT 18/01 A2992 RMK A01 T01810010  RH  032%=      5-min Rain = 0
KVA1 241206Z 18005KT 18/01 A2992 RMK A01 T01820008  RH  031%=      5-min Rain = 0
KVA1 241207Z 16005KT 18/01 A2992 RMK A01 T01830007  RH  031%=      5-min Rain = 0
KVA1 241208Z 16007KT 18/01 A2992 RMK A01 T01840007  RH  030%=      5-min Rain = 0
KVA1 241209Z 18006KT 18/01 A2992 RMK A01 T01840005  RH  030%=      5-min Rain = 0
KVA1 241210Z 18007KT 19/00 A2992 RMK A01 T01870002  RH  029%=      5-min Rain = 0
KVA1 241211Z 18007KT 19/M00 A2992 RMK A01 T01911001  RH  028%=      5-min Rain = 0
KVA1 241212Z 17006KT 20/M00 A2993 RMK A01 T01951002  RH  027%=      5-min Rain = 0
KVA1 241213Z 18006KT 20/M00 A2993 RMK A01 T01981004  RH  026%=      5-min Rain = 0
KVA1 241214Z 17005KT 20/M00 A2993 RMK A01 T02021004  RH  025%=      5-min Rain = 0
KVA1 241215Z 17005KT 20/M00 A2993 RMK A01 T02041003  RH  025%=      5-min Rain = 0
KVA1 241216Z 17004KT 20/M00 A2993 RMK A01 T02041003  RH  025%=      5-min Rain = 0
KVA1 241217Z 17003KT 21/M00 A2993 RMK A01 T02051003  RH  025%=      5-min Rain = 0
KVA1 241218Z 16006KT 21/M00 A2993 RMK A01 T02051003  RH  025%=      5-min Rain = 0
KVA1 241219Z 15005KT 20/M00 A2993 RMK A01 T02041003  RH  025%=      5-min Rain = 0
KVA1 241220Z 13002KT 20/M00 A2993 RMK A01 T02041003  RH  025%=      5-min Rain = 0
KVA1 241221Z 15002KT 20/M00 A2993 RMK A01 T02041004  RH  025%=      5-min Rain = 0
KVA1 241222Z 20005KT 21/M01 A2993 RMK A01 T02051005  RH  024%=      5-min Rain = 0
KVA1 241223Z 18006KT 21/M01 A2993 RMK A01 T02071005  RH  024%=      5-min Rain = 0
KVA1 241224Z 23006KT 21/M00 A2993 RMK A01 T02091004  RH  024%=      5-min Rain = 0
KVA1 241225Z 26005KT 21/M01 A2993 RMK A01 T02111005  RH  024%=      5-min Rain = 0
KVA1 241226Z 23003KT 21/M01 A2993 RMK A01 T02131005  RH  023%=      5-min Rain = 0
KVA1 241227Z 21002KT 22/M00 A2993 RMK A01 T02151004  RH  023%=      5-min Rain = 0
KVA1 241228Z 22002KT 22/M00 A2993 RMK A01 T02151004  RH  023%=      5-min Rain = 0
KVA1 241229Z 18003KT 22/M00 A2993 RMK A01 T02151003  RH  023%=      5-min Rain = 0
KVA1 241230Z 18003KT 21/M01 A2993 RMK A01 T02141005  RH  023%=      5-min Rain = 0
KVA1 241231Z 20003KT 22/M00 A2993 RMK A01 T02151004  RH  023%=      5-min Rain = 0
KVA1 241232Z 20003KT 21/M00 A2993 RMK A01 T02141004  RH  023%=      5-min Rain = 0
KVA1 241233Z 21004KT 21/M00 A2993 RMK A01 T02141003  RH  023%=      5-min Rain = 0
KVA1 241234Z 19003KT 21/M00 A2993 RMK A01 T02131003  RH  024%=      5-min Rain = 0
KVA1 241235Z 19002KT 21/M00 A2993 RMK A01 T02131003  RH  024%=      5-min Rain = 0
KVA1 241236Z 22005KT 21/M00 A2993 RMK A01 T02131003  RH  024%=      5-min Rain = 0
KVA1 241237Z 19004KT 21/M00 A2994 RMK A01 T02131003  RH  024%=      5-min Rain = 0
KVA1 241238Z 19003KT 21/M00 A2994 RMK A01 T02121003  RH  024%=      5-min Rain = 0
KVA1 241239Z 21004KT 21/M00 A2994 RMK A01 T02121002  RH  024%=      5-min Rain = 0
KVA1 241240Z 20004KT 21/M00 A2994 RMK A01 T02131002  RH  024%=      5-min Rain = 0
KVA1 241241Z 21004KT 21/M00 A2994 RMK A01 T02121004  RH  024%=      5-min Rain = 0
KVA1 241242Z 22004KT 21/M00 A2994 RMK A01 T02141004  RH  023%=      5-min Rain = 0
KVA1 241243Z 21005KT 21/M00 A2994 RMK A01 T02141003  RH  023%=      5-min Rain = 0
KVA1 241244Z 21005KT 21/M01 A2994 RMK A01 T02141005  RH  023%=      5-min Rain = 0
KVA1 241245Z 19003KT 22/M00 A2994 RMK A01 T02151004  RH  023%=      5-min Rain = 0
KVA1 241246Z 21005KT 22/M00 A2994 RMK A01 T02151004  RH  023%=      5-min Rain = 0
KVA1 241247Z 21004KT 22/M01 A2994 RMK A01 T02151005  RH  023%=      5-min Rain = 0
KVA1 241248Z 19002KT 22/M01 A2994 RMK A01 T02161005  RH  023%=      5-min Rain = 0
KVA1 241249Z 21003KT 22/M00 A2994 RMK A01 T02171003  RH  023%=      5-min Rain = 0
KVA1 241250Z 22004KT 22/M00 A2994 RMK A01 T02171002  RH  023%=      5-min Rain = 0
KVA1 241251Z 20003KT 22/M00 A2994 RMK A01 T02171003  RH  023%=      5-min Rain = 0
KVA1 241252Z 22005KT 22/M00 A2994 RMK A01 T02171003  RH  023%=      5-min Rain = 0
KVA1 241253Z 22006KT 22/M01 A2994 RMK A01 T02181005  RH  023%=      5-min Rain = 0
KVA1 241254Z 24006KT 22/M01 A2994 RMK A01 T02191005  RH  022%=      5-min Rain = 0
KVA1 241255Z 21005KT 22/M01 A2994 RMK A01 T02201005  RH  022%=      5-min Rain = 0
KVA1 241256Z 23004KT 22/M01 A2994 RMK A01 T02211005  RH  022%=      5-min Rain = 0
KVA1 241257Z 21005KT 22/M00 A2994 RMK A01 T02211003  RH  022%=      5-min Rain = 0
KVA1 241258Z 23005KT 22/M00 A2994 RMK A01 T02221002  RH  023%=      5-min Rain = 0
KVA1 241259Z 23004KT 22/M00 A2994 RMK A01 T02211003  RH  022%=      5-min Rain = 0
KVA1 241300Z 24006KT 22/M00 A2994 RMK A01 T02221003  RH  022%=      5-min Rain = 0
KVA1 241301Z 22005KT 22/M00 A2994 RMK A01 T02221004  RH  022%=      5-min Rain = 0
KVA1 241302Z 21005KT 22/M01 A2994 RMK A01 T02231005  RH  022%=      5-min Rain = 0
KVA1 241303Z 21007KT 22/M00 A2994 RMK A01 T02231003  RH  022%=      5-min Rain = 0
KVA1 241304Z 21006KT 22/M01 A2994 RMK A01 T02241005  RH  022%=      5-min Rain = 0
KVA1 241305Z 20006KT 22/M01 A2994 RMK A01 T02241005  RH  022%=      5-min Rain = 0
KVA1 241306Z 21005KT 22/M01 A2994 RMK A01 T02241006  RH  022%=      5-min Rain = 0
KVA1 241307Z 21006KT 23/M01 A2994 RMK A01 T02251005  RH  022%=      5-min Rain = 0
KVA1 241308Z 21004KT 23/M00 A2994 RMK A01 T02251004  RH  022%=      5-min Rain = 0
KVA1 241309Z 22004KT 23/M00 A2994 RMK A01 T02261003  RH  022%=      5-min Rain = 0
KVA1 241310Z 22004KT 23/M00 A2994 RMK A01 T02261004  RH  022%=      5-min Rain = 0
KVA1 241311Z 23005KT 23/M00 A2994 RMK A01 T02261004  RH  022%=      5-min Rain = 0
KVA1 241312Z 23006KT 23/M00 A2994 RMK A01 T02261004  RH  022%=      5-min Rain = 0
KVA1 241313Z 23004KT 23/M00 A2994 RMK A01 T02261004  RH  022%=      5-min Rain = 0
KVA1 241314Z 21005KT 23/M00 A2994 RMK A01 T02271004  RH  022%=      5-min Rain = 0
KVA1 241315Z 19008KT 23/M00 A2994 RMK A01 T02271004  RH  022%=      5-min Rain = 0
KVA1 241316Z 19004KT 23/M00 A2994 RMK A01 T02271004  RH  021%=      5-min Rain = 0
KVA1 241317Z 18003KT 23/M00 A2994 RMK A01 T02271003  RH  022%=      5-min Rain = 0
KVA1 241318Z 22004KT 23/M00 A2994 RMK A01 T02281004  RH  021%=      5-min Rain = 0
KVA1 241319Z 21004KT 23/M00 A2994 RMK A01 T02281002  RH  022%=      5-min Rain = 0
KVA1 241320Z 24004KT 23/M00 A2994 RMK A01 T02291002  RH  022%=      5-min Rain = 0
KVA1 241321Z 21003KT 23/M00 A2994 RMK A01 T02301004  RH  021%=      5-min Rain = 0
KVA1 241322Z 22004KT 23/M00 A2994 RMK A01 T02301002  RH  021%=      5-min Rain = 0
KVA1 241323Z 22004KT 23/M00 A2994 RMK A01 T02311001  RH  021%=      5-min Rain = 0
KVA1 241324Z 25004KT 23/M00 A2994 RMK A01 T02321002  RH  021%=      5-min Rain = 0
KVA1 241325Z 25005KT 23/M00 A2994 RMK A01 T02321004  RH  021%=      5-min Rain = 0
KVA1 241326Z 23004KT 23/M00 A2994 RMK A01 T02321004  RH  021%=      5-min Rain = 0
KVA1 241327Z 24004KT 23/M00 A2994 RMK A01 T02321003  RH  021%=      5-min Rain = 0
KVA1 241328Z 20003KT 23/M00 A2994 RMK A01 T02331003  RH  021%=      5-min Rain = 0
KVA1 241329Z 24005KT 23/M00 A2994 RMK A01 T02331003  RH  021%=      5-min Rain = 0
KVA1 241330Z 24003KT 23/M00 A2994 RMK A01 T02331004  RH  021%=      5-min Rain = 0
KVA1 241331Z 25005KT 23/M00 A2994 RMK A01 T02331004  RH  021%=      5-min Rain = 0
KVA1 241332Z 25005KT 23/M00 A2994 RMK A01 T02331004  RH  021%=      5-min Rain = 0
KVA1 241333Z 25007KT 23/M00 A2994 RMK A01 T02341003  RH  021%=      5-min Rain = 0
KVA1 241334Z 24006KT 23/M00 A2994 RMK A01 T02341003  RH  021%=      5-min Rain = 0
KVA1 241335Z 25007KT 24/M01 A2994 RMK A01 T02351005  RH  020%=      5-min Rain = 0
KVA1 241336Z 24007KT 24/M00 A2994 RMK A01 T02351004  RH  021%=      5-min Rain = 0
KVA1 241337Z 24008KT 23/M01 A2994 RMK A01 T02341005  RH  020%=      5-min Rain = 0
KVA1 241338Z 25008KT 23/M01 A2994 RMK A01 T02341005  RH  021%=      5-min Rain = 0
KVA1 241339Z 23006KT 24/M00 A2994 RMK A01 T02351003  RH  021%=      5-min Rain = 0
KVA1 241340Z 25006KT 24/M00 A2994 RMK A01 T02361003  RH  021%=      5-min Rain = 0
KVA1 241341Z 24005KT 24/M00 A2994 RMK A01 T02361003  RH  020%=      5-min Rain = 0
KVA1 241342Z 23007KT 24/M00 A2994 RMK A01 T02371003  RH  021%=      5-min Rain = 0
KVA1 241343Z 25009KT 24/M00 A2994 RMK A01 T02371003  RH  020%=      5-min Rain = 0
KVA1 241344Z 24009G14KT 24/M00 A2994 RMK A01 T02381004  RH  020%=      5-min Rain = 0
KVA1 241345Z 26010KT 24/M00 A2994 RMK A01 T02381004  RH  020%=      5-min Rain = 0
KVA1 241346Z 24010KT 24/M00 A2994 RMK A01 T02381004  RH  020%=      5-min Rain = 0
KVA1 241347Z 24010KT 24/M00 A2994 RMK A01 T02381004  RH  020%=      5-min Rain = 0
KVA1 241348Z 26011KT 24/M00 A2994 RMK A01 T02391004  RH  020%=      5-min Rain = 0
KVA1 241349Z 26010KT 24/M00 A2994 RMK A01 T02401004  RH  020%=      5-min Rain = 0
KVA1 241350Z 26007KT 24/M00 A2994 RMK A01 T02401004  RH  020%=      5-min Rain = 0
KVA1 241351Z 27009KT 24/M00 A2994 RMK A01 T02411003  RH  020%=      5-min Rain = 0
KVA1 241352Z 25010KT 24/M00 A2994 RMK A01 T02421004  RH  020%=      5-min Rain = 0
KVA1 241353Z 26010KT 24/M00 A2994 RMK A01 T02421004  RH  020%=      5-min Rain = 0
KVA1 241354Z 26012G17KT 24/M01 A2994 RMK A01 T02421005  RH  020%=      5-min Rain = 0
KVA1 241355Z 27012KT 24/M01 A2994 RMK A01 T02421005  RH  020%=      5-min Rain = 0
KVA1 241356Z 25008KT 24/M00 A2994 RMK A01 T02411004  RH  020%=      5-min Rain = 0
KVA1 241357Z 26010KT 24/M00 A2994 RMK A01 T02431003  RH  020%=      5-min Rain = 0
KVA1 241358Z 27011KT 24/M00 A2994 RMK A01 T02441004  RH  019%=      5-min Rain = 0
KVA1 241359Z 25011KT 24/M00 A2994 RMK A01 T02441004  RH  019%=      5-min Rain = 0
KVA1 241400Z 27010KT 24/M00 A2994 RMK A01 T02441004  RH  019%=      5-min Rain = 0
KVA1 241401Z 27008G14KT 24/M00 A2994 RMK A01 T02441004  RH  019%=      5-min Rain = 0
KVA1 241402Z 26009G14KT 25/M00 A2994 RMK A01 T02451004  RH  019%=      5-min Rain = 0
KVA1 241403Z 27013KT 25/M00 A2993 RMK A01 T02461004  RH  019%=      5-min Rain = 0
KVA1 241404Z 28011KT 25/M01 A2994 RMK A01 T02461005  RH  019%=      5-min Rain = 0
KVA1 241405Z 27011KT 25/M01 A2994 RMK A01 T02461005  RH  019%=      5-min Rain = 0
KVA1 241406Z 26011KT 25/M00 A2993 RMK A01 T02461004  RH  019%=      5-min Rain = 0
KVA1 241407Z 27010KT 25/M00 A2994 RMK A01 T02471004  RH  019%=      5-min Rain = 0
KVA1 241408Z 27012KT 25/M01 A2994 RMK A01 T02471005  RH  019%=      5-min Rain = 0
KVA1 241409Z 28010KT 25/M01 A2993 RMK A01 T02471005  RH  019%=      5-min Rain = 0
KVA1 241410Z 27009KT 25/M01 A2993 RMK A01 T02481005  RH  019%=      5-min Rain = 0
KVA1 241411Z 29009KT 25/M00 A2993 RMK A01 T02491004  RH  019%=      5-min Rain = 0
KVA1 241412Z 27012KT 25/M00 A2993 RMK A01 T02501004  RH  019%=      5-min Rain = 0
KVA1 241413Z 28012KT 25/M01 A2993 RMK A01 T02501007  RH  018%=      5-min Rain = 0
KVA1 241414Z 27009KT 25/M01 A2993 RMK A01 T02501006  RH  019%=      5-min Rain = 0
KVA1 241415Z 28009KT 25/M01 A2993 RMK A01 T02501005  RH  019%=      5-min Rain = 0
KVA1 241416Z 29009KT 25/M00 A2993 RMK A01 T02511004  RH  019%=      5-min Rain = 0
KVA1 241417Z 27013KT 25/M01 A2993 RMK A01 T02521005  RH  018%=      5-min Rain = 0
KVA1 241418Z 28013KT 25/M01 A2993 RMK A01 T02521007  RH  018%=      5-min Rain = 0
KVA1 241419Z 27010G15KT 25/M01 A2993 RMK A01 T02521007  RH  018%=      5-min Rain = 0
KVA1 241420Z 28011KT 25/M01 A2993 RMK A01 T02531006  RH  018%=      5-min Rain = 0
KVA1 241421Z 28008KT 25/M01 A2993 RMK A01 T02541007  RH  018%=      5-min Rain = 0
KVA1 241422Z 28015KT 26/M01 A2993 RMK A01 T02551006  RH  018%=      5-min Rain = 0
KVA1 241423Z 27012G17KT 26/M01 A2993 RMK A01 T02551007  RH  018%=      5-min Rain = 0
KVA1 241424Z 27010G17KT 26/M01 A2993 RMK A01 T02551006  RH  018%=      5-min Rain = 0
KVA1 241425Z 27016KT 26/M01 A2993 RMK A01 T02561007  RH  018%=      5-min Rain = 0
KVA1 241426Z 28012G17KT 26/M01 A2993 RMK A01 T02561009  RH  017%=      5-min Rain = 0
KVA1 241427Z 28014KT 26/M01 A2993 RMK A01 T02561007  RH  018%=      5-min Rain = 0
KVA1 241428Z 27011KT 26/M01 A2993 RMK A01 T02561007  RH  018%=      5-min Rain = 0
KVA1 241429Z 28013G18KT 26/M01 A2993 RMK A01 T02571007  RH  018%=      5-min Rain = 0
KVA1 241430Z 27010KT 26/M01 A2993 RMK A01 T02571007  RH  018%=      5-min Rain = 0
KVA1 241431Z 28008KT 26/M01 A2993 RMK A01 T02581006  RH  018%=      5-min Rain = 0
KVA1 241432Z 28015KT 26/M01 A2993 RMK A01 T02611007  RH  017%=      5-min Rain = 0
KVA1 241433Z 28013G18KT 26/M01 A2993 RMK A01 T02611011  RH  017%=      5-min Rain = 0
KVA1 241434Z 28011G19KT 26/M01 A2993 RMK A01 T02601010  RH  017%=      5-min Rain = 0
KVA1 241435Z 27014G20KT 26/M01 A2993 RMK A01 T02611013  RH  016%=      5-min Rain = 0
KVA1 241436Z 27015KT 26/M02 A2993 RMK A01 T02611015  RH  016%=      5-min Rain = 0
KVA1 241437Z 27014KT 26/M02 A2993 RMK A01 T02611015  RH  016%=      5-min Rain = 0
KVA1 241438Z 28016KT 26/M02 A2993 RMK A01 T02611015  RH  016%=      5-min Rain = 0
KVA1 241439Z 29015KT 26/M02 A2993 RMK A01 T02611015  RH  016%=      5-min Rain = 0
KVA1 241440Z 28013KT 26/M02 A2993 RMK A01 T02611015  RH  016%=      5-min Rain = 0
KVA1 241441Z 28014G20KT 26/M01 A2993 RMK A01 T02621013  RH  016%=      5-min Rain = 0
KVA1 241442Z 27013G18KT 26/M01 A2993 RMK A01 T02631014  RH  016%=      5-min Rain = 0
KVA1 241443Z 27015KT 26/M01 A2993 RMK A01 T02641014  RH  016%=      5-min Rain = 0
KVA1 241444Z 28015KT 26/M02 A2993 RMK A01 T02641015  RH  016%=      5-min Rain = 0
KVA1 241445Z 28011G17KT 26/M01 A2993 RMK A01 T02641013  RH  016%=      5-min Rain = 0
KVA1 241446Z 28017KT 27/M02 A2993 RMK A01 T02651015  RH  016%=      5-min Rain = 0
KVA1 241447Z 27013KT 27/M02 A2993 RMK A01 T02651017  RH  016%=      5-min Rain = 0
KVA1 241448Z 29013KT 27/M02 A2993 RMK A01 T02651015  RH  016%=      5-min Rain = 0
KVA1 241449Z 27015G23KT 27/M02 A2993 RMK A01 T02671016  RH  016%=      5-min Rain = 0
KVA1 241450Z 28019KT 27/M02 A2993 RMK A01 T02671021  RH  015%=      5-min Rain = 0
KVA1 241451Z 29014KT 27/M02 A2993 RMK A01 T02661020  RH  015%=      5-min Rain = 0
KVA1 241452Z 29015KT 27/M02 A2993 RMK A01 T02661019  RH  015%=      5-min Rain = 0
KVA1 241453Z 28014G21KT 27/M02 A2993 RMK A01 T02671017  RH  015%=      5-min Rain = 0
KVA1 241454Z 29016G21KT 27/M02 A2993 RMK A01 T02691018  RH  015%=      5-min Rain = 0
KVA1 241455Z 28018KT 27/M02 A2993 RMK A01 T02701021  RH  015%=      5-min Rain = 0
KVA1 241456Z 28017G22KT 27/M02 A2993 RMK A01 T02701023  RH  014%=      5-min Rain = 0
KVA1 241457Z 29017KT 27/M03 A2993 RMK A01 T02691025  RH  014%=      5-min Rain = 0
KVA1 241458Z 29018KT 27/M03 A2993 RMK A01 T02691025  RH  014%=      5-min Rain = 0
KVA1 241459Z 28016KT 27/M03 A2993 RMK A01 T02681026  RH  014%=      5-min Rain = 0
KVA1 241500Z 28018G23KT 27/M03 A2993 RMK A01 T02691026  RH  014%=      5-min Rain = 0
KVA1 241501Z 28015KT 27/M03 A2993 RMK A01 T02691025  RH  014%=      5-min Rain = 0
KVA1 241502Z 28015G20KT 27/M02 A2993 RMK A01 T02691024  RH  014%=      5-min Rain = 0
KVA1 241503Z 27016KT 27/M02 A2993 RMK A01 T02691023  RH  015%=      5-min Rain = 0
KVA1 241504Z 28013G19KT 27/M02 A2993 RMK A01 T02711021  RH  015%=      5-min Rain = 0
KVA1 241505Z 28012G19KT 27/M02 A2993 RMK A01 T02731020  RH  015%=      5-min Rain = 0
KVA1 241506Z 29017KT 27/M02 A2993 RMK A01 T02741020  RH  014%=      5-min Rain = 0
KVA1 241507Z 29017KT 27/M02 A2993 RMK A01 T02721021  RH  015%=      5-min Rain = 0
KVA1 241508Z 29019G24KT 27/M02 A2993 RMK A01 T02721022  RH  014%=      5-min Rain = 0
KVA1 241509Z 29018G24KT 27/M02 A2993 RMK A01 T02701024  RH  014%=      5-min Rain = 0
KVA1 241510Z 29017G24KT 27/M02 A2993 RMK A01 T02691024  RH  014%=      5-min Rain = 0
KVA1 241511Z 29015KT 27/M03 A2993 RMK A01 T02691025  RH  014%=      5-min Rain = 0
KVA1 241512Z 29014KT 27/M02 A2993 RMK A01 T02711023  RH  014%=      5-min Rain = 0
KVA1 241513Z 29018KT 27/M02 A2993 RMK A01 T02721023  RH  014%=      5-min Rain = 0
KVA1 241514Z 29017KT 27/M03 A2993 RMK A01 T02711027  RH  014%=      5-min Rain = 0
KVA1 241515Z 29013KT 27/M03 A2993 RMK A01 T02711026  RH  014%=      5-min Rain = 0
KVA1 241516Z 29012G17KT 27/M02 A2993 RMK A01 T02731024  RH  014%=      5-min Rain = 0
KVA1 241517Z 28013G18KT 28/M02 A2993 RMK A01 T02771022  RH  014%=      5-min Rain = 0
KVA1 241518Z 28017KT 28/M03 A2993 RMK A01 T02791025  RH  013%=      5-min Rain = 0
KVA1 241519Z 27017G22KT 28/M03 A2993 RMK A01 T02791029  RH  013%=      5-min Rain = 0
KVA1 241520Z 27015KT 28/M03 A2993 RMK A01 T02761027  RH  014%=      5-min Rain = 0
KVA1 241521Z 28016KT 28/M02 A2993 RMK A01 T02751024  RH  014%=      5-min Rain = 0
KVA1 241522Z 29015KT 28/M02 A2993 RMK A01 T02751024  RH  014%=      5-min Rain = 0
KVA1 241523Z 28014G22KT 28/M02 A2993 RMK A01 T02781023  RH  014%=      5-min Rain = 0
KVA1 241524Z 29015KT 28/M02 A2993 RMK A01 T02781024  RH  014%=      5-min Rain = 0
KVA1 241525Z 29014KT 28/M02 A2993 RMK A01 T02781021  RH  014%=      5-min Rain = 0
KVA1 241526Z 29013G20KT 28/M02 A2993 RMK A01 T02781022  RH  014%=      5-min Rain = 0
KVA1 241527Z 29014G19KT 28/M02 A2993 RMK A01 T02801024  RH  014%=      5-min Rain = 0
KVA1 241528Z 28018KT 28/M02 A2993 RMK A01 T02811024  RH  014%=      5-min Rain = 0
KVA1 241529Z 28017G23KT 28/M02 A2993 RMK A01 T02751023  RH  014%=      5-min Rain = 0
KVA1 241530Z 28013G19KT 27/M02 A2993 RMK A01 T02731020  RH  015%=      5-min Rain = 0
KVA1 241531Z 27012KT 28/M02 A2993 RMK A01 T02751018  RH  015%=      5-min Rain = 0
KVA1 241532Z 27014G20KT 28/M02 A2993 RMK A01 T02781019  RH  014%=      5-min Rain = 0
KVA1 241533Z 27017G22KT 28/M02 A2993 RMK A01 T02801018  RH  014%=      5-min Rain = 0
KVA1 241534Z 27014KT 28/M02 A2993 RMK A01 T02781018  RH  014%=      5-min Rain = 0
KVA1 241535Z 28018KT 28/M01 A2993 RMK A01 T02771014  RH  015%=      5-min Rain = 0
KVA1 241536Z 29014KT 28/M01 A2993 RMK A01 T02761012  RH  015%=      5-min Rain = 0
KVA1 241537Z 30014G19KT 28/M01 A2993 RMK A01 T02781008  RH  015%=      5-min Rain = 0
KVA1 241538Z 29017KT 28/M01 A2993 RMK A01 T02791006  RH  016%=      5-min Rain = 0
KVA1 241539Z 28011G18KT 28/M00 A2993 RMK A01 T02781003  RH  016%=      5-min Rain = 0
KVA1 241540Z 28014KT 28/M00 A2993 RMK A01 T02791004  RH  016%=      5-min Rain = 0
KVA1 241541Z 27013KT 28/M01 A2993 RMK A01 T02791005  RH  016%=      5-min Rain = 0
KVA1 241542Z 28013G21KT 28/M00 A2993 RMK A01 T02791002  RH  016%=      5-min Rain = 0
KVA1 241543Z 28013KT 28/M01 A2993 RMK A01 T02791005  RH  016%=      5-min Rain = 0
KVA1 241544Z 28013G19KT 28/M01 A2993 RMK A01 T02791010  RH  015%=      5-min Rain = 0
KVA1 241545Z 28015G23KT 28/M02 A2993 RMK A01 T02771015  RH  015%=      5-min Rain = 0
KVA1 241546Z 27015G20KT 28/M02 A2993 RMK A01 T02781018  RH  014%=      5-min Rain = 0
KVA1 241547Z 27015KT 28/M02 A2993 RMK A01 T02801018  RH  014%=      5-min Rain = 0
KVA1 241548Z 27015G21KT 28/M02 A2993 RMK A01 T02801020  RH  014%=      5-min Rain = 0
KVA1 241549Z 27017G22KT 28/M02 A2993 RMK A01 T02811019  RH  014%=      5-min Rain = 0
KVA1 241550Z 28017G23KT 28/M02 A2993 RMK A01 T02811021  RH  014%=      5-min Rain = 0
KVA1 241551Z 28015KT 28/M02 A2993 RMK A01 T02791019  RH  014%=      5-min Rain = 0
KVA1 241552Z 27015G20KT 28/M02 A2993 RMK A01 T02781017  RH  014%=      5-min Rain = 0
KVA1 241553Z 28014KT 28/M02 A2993 RMK A01 T02791017  RH  014%=      5-min Rain = 0
KVA1 241554Z 29013KT 28/M02 A2993 RMK A01 T02821016  RH  014%=      5-min Rain = 0
KVA1 241555Z 28012G19KT 28/M02 A2993 RMK A01 T02841015  RH  014%=      5-min Rain = 0
KVA1 241556Z 28017KT 29/M02 A2993 RMK A01 T02851016  RH  014%=      5-min Rain = 0
KVA1 241557Z 28014G20KT 28/M02 A2993 RMK A01 T02821019  RH  014%=      5-min Rain = 0
KVA1 241558Z 28019KT 28/M02 A2993 RMK A01 T02821017  RH  014%=      5-min Rain = 0
KVA1 241559Z 28015KT 28/M02 A2993 RMK A01 T02811018  RH  014%=      5-min Rain = 0
KVA1 241600Z 28013G18KT 28/M02 A2993 RMK A01 T02811017  RH  014%=      5-min Rain = 0
KVA1 241601Z 27013KT 28/M02 A2993 RMK A01 T02831016  RH  014%=      5-min Rain = 0
KVA1 241602Z 28014KT 28/M02 A2993 RMK A01 T02841017  RH  014%=      5-min Rain = 0
KVA1 241603Z 28015G20KT 29/M02 A2993 RMK A01 T02861016  RH  014%=      5-min Rain = 0
KVA1 241604Z 28012KT 29/M02 A2993 RMK A01 T02861018  RH  014%=      5-min Rain = 0
KVA1 241605Z 29013G18KT 29/M01 A2993 RMK A01 T02881014  RH  014%=      5-min Rain = 0
KVA1 241606Z 31016G22KT 29/M01 A2993 RMK A01 T02901007  RH  014%=      5-min Rain = 0
KVA1 241607Z 30017KT 29/M01 A2993 RMK A01 T02871007  RH  015%=      5-min Rain = 0
KVA1 241608Z 30016G21KT 28/M01 A2993 RMK A01 T02831011  RH  015%=      5-min Rain = 0
KVA1 241609Z 30016KT 28/M01 A2993 RMK A01 T02821010  RH  015%=      5-min Rain = 0
KVA1 241610Z 30016KT 28/M01 A2993 RMK A01 T02811012  RH  015%=      5-min Rain = 0
KVA1 241611Z 29013KT 28/M02 A2993 RMK A01 T02801015  RH  014%=      5-min Rain = 0
KVA1 241612Z 31012G17KT 28/M01 A2993 RMK A01 T02821014  RH  014%=      5-min Rain = 0
KVA1 241613Z 31009G16KT 29/M01 A2993 RMK A01 T02851014  RH  014%=      5-min Rain = 0
KVA1 241614Z 29012G17KT 29/M01 A2993 RMK A01 T02861014  RH  014%=      5-min Rain = 0
KVA1 241615Z 29009G15KT 29/M01 A2993 RMK A01 T02891010  RH  014%=      5-min Rain = 0
KVA1 241616Z 29014G22KT 29/M01 A2993 RMK A01 T02921010  RH  014%=      5-min Rain = 0
KVA1 241617Z 31016KT 29/M01 A2993 RMK A01 T02921010  RH  014%=      5-min Rain = 0
KVA1 241618Z 29014KT 29/M01 A2993 RMK A01 T02881013  RH  014%=      5-min Rain = 0
KVA1 241619Z 29017KT 29/M01 A2993 RMK A01 T02851013  RH  014%=      5-min Rain = 0
KVA1 241620Z 30012KT 28/M01 A2993 RMK A01 T02831011  RH  015%=      5-min Rain = 0
KVA1 241621Z 30014G19KT 28/M01 A2993 RMK A01 T02841008  RH  015%=      5-min Rain = 0
KVA1 241622Z 28015KT 28/M01 A2993 RMK A01 T02841011  RH  015%=      5-min Rain = 0
KVA1 241623Z 28013KT 28/M01 A2993 RMK A01 T02831014  RH  014%=      5-min Rain = 0
KVA1 241624Z 29012G17KT 28/M01 A2993 RMK A01 T02821014  RH  014%=      5-min Rain = 0
KVA1 241625Z 28014KT 28/M01 A2992 RMK A01 T02831013  RH  014%=      5-min Rain = 0
KVA1 241626Z 32015KT 28/M01 A2993 RMK A01 T02831012  RH  014%=      5-min Rain = 0
KVA1 241627Z 32013KT 28/M01 A2993 RMK A01 T02841011  RH  015%=      5-min Rain = 0
KVA1 241628Z 29015G21KT 29/M01 A2993 RMK A01 T02851011  RH  014%=      5-min Rain = 0
KVA1 241629Z 28016KT 29/M02 A2993 RMK A01 T02861015  RH  014%=      5-min Rain = 0
KVA1 241630Z 29011KT 29/M01 A2993 RMK A01 T02851014  RH  014%=      5-min Rain = 0
KVA1 241631Z 28011KT 28/M01 A2993 RMK A01 T02841013  RH  014%=      5-min Rain = 0
KVA1 241632Z 28014KT 29/M01 A2993 RMK A01 T02871010  RH  014%=      5-min Rain = 0
KVA1 241633Z 29014KT 29/M01 A2993 RMK A01 T02881013  RH  014%=      5-min Rain = 0
KVA1 241634Z 29014G19KT 29/M02 A2993 RMK A01 T02861016  RH  014%=      5-min Rain = 0
KVA1 241635Z 29010KT 28/M02 A2993 RMK A01 T02841016  RH  014%=      5-min Rain = 0
KVA1 241636Z 31010G15KT 29/M01 A2993 RMK A01 T02851013  RH  014%=      5-min Rain = 0
KVA1 241637Z 30016G22KT 29/M01 A2993 RMK A01 T02881013  RH  014%=      5-min Rain = 0
KVA1 241638Z 31014G19KT 29/M02 A2993 RMK A01 T02881015  RH  014%=      5-min Rain = 0
KVA1 241639Z 31016KT 29/M01 A2993 RMK A01 T02851014  RH  014%=      5-min Rain = 0
KVA1 241640Z 31013KT 29/M01 A2993 RMK A01 T02861014  RH  014%=      5-min Rain = 0
KVA1 241641Z 30011KT 29/M01 A2993 RMK A01 T02851014  RH  014%=      5-min Rain = 0
KVA1 241642Z 31012KT 29/M01 A2993 RMK A01 T02871014  RH  014%=      5-min Rain = 0
KVA1 241643Z 29011KT 29/M01 A2992 RMK A01 T02871014  RH  014%=      5-min Rain = 0
KVA1 241644Z 30010KT 29/M01 A2993 RMK A01 T02891014  RH  014%=      5-min Rain = 0
KVA1 241645Z 30011KT 29/M01 A2993 RMK A01 T02911012  RH  014%=      5-min Rain = 0
KVA1 241646Z 30010KT 29/M01 A2993 RMK A01 T02931012  RH  014%=      5-min Rain = 0
KVA1 241647Z 28013KT 29/M01 A2993 RMK A01 T02941013  RH  014%=      5-min Rain = 0
KVA1 241648Z 30011G16KT 29/M01 A2993 RMK A01 T02921013  RH  014%=      5-min Rain = 0
KVA1 241649Z 28013KT 29/M01 A2993 RMK A01 T02921012  RH  014%=      5-min Rain = 0
KVA1 241650Z 27017KT 29/M01 A2993 RMK A01 T02901010  RH  014%=      5-min Rain = 0
KVA1 241651Z 27014KT 29/M01 A2993 RMK A01 T02881011  RH  014%=      5-min Rain = 0
KVA1 241652Z 27010KT 29/M01 A2992 RMK A01 T02851011  RH  015%=      5-min Rain = 0
KVA1 241653Z 29010KT 28/M01 A2992 RMK A01 T02831007  RH  015%=      5-min Rain = 0
KVA1 241654Z 30013KT 29/M01 A2993 RMK A01 T02871010  RH  014%=      5-min Rain = 0
KVA1 241655Z 32010G16KT 29/M01 A2993 RMK A01 T02871013  RH  014%=      5-min Rain = 0
KVA1 241656Z 31012KT 29/M01 A2993 RMK A01 T02901011  RH  014%=      5-min Rain = 0
KVA1 241657Z 30013KT 29/M01 A2992 RMK A01 T02921010  RH  014%=      5-min Rain = 0
KVA1 241658Z 30011KT 29/M01 A2992 RMK A01 T02921011  RH  014%=      5-min Rain = 0
KVA1 241659Z 29014KT 29/M01 A2993 RMK A01 T02931010  RH  014%=      5-min Rain = 0
KVA1 241700Z 30012KT 29/M01 A2993 RMK A01 T02941012  RH  014%=      5-min Rain = 0
KVA1 241701Z 31012KT 29/M01 A2993 RMK A01 T02921014  RH  014%=      5-min Rain = 0
KVA1 241702Z 31011KT 29/M01 A2992 RMK A01 T02891012  RH  014%=      5-min Rain = 0
KVA1 241703Z 32013KT 29/M01 A2992 RMK A01 T02891008  RH  015%=      5-min Rain = 0
KVA1 241704Z 30011KT 29/M01 A2992 RMK A01 T02911007  RH  014%=      5-min Rain = 0
KVA1 241705Z 29009G14KT 29/M00 A2993 RMK A01 T02941004  RH  014%=      5-min Rain = 0
KVA1 241706Z 28009KT 30/M00 A2992 RMK A01 T02961002  RH  014%=      5-min Rain = 0
KVA1 241707Z 27008KT 30/00 A2992 RMK A01 T029800-0  RH  015%=      5-min Rain = 0
KVA1 241708Z 29008G19KT 30/00 A2992 RMK A01 T029800-0  RH  015%=      5-min Rain = 0
KVA1 241709Z 30010G15KT 30/M00 A2992 RMK A01 T03001003  RH  014%=      5-min Rain = 0
KVA1 241710Z 28012KT 30/M00 A2992 RMK A01 T03011004  RH  014%=      5-min Rain = 0
KVA1 241711Z 27015KT 30/M01 A2992 RMK A01 T02991007  RH  014%=      5-min Rain = 0
KVA1 241712Z 28015G20KT 30/M01 A2992 RMK A01 T02961008  RH  014%=      5-min Rain = 0
KVA1 241713Z 28013KT 29/M01 A2993 RMK A01 T02941009  RH  014%=      5-min Rain = 0
KVA1 241714Z 28009KT 29/M01 A2993 RMK A01 T02921007  RH  014%=      5-min Rain = 0
KVA1 241715Z 29008KT 29/M01 A2993 RMK A01 T02931005  RH  015%=      5-min Rain = 0
KVA1 241716Z 28011G16KT 30/00 A2992 RMK A01 T02960000  RH  015%=      5-min Rain = 0
KVA1 241717Z 29010KT 30/M00 A2992 RMK A01 T02981001  RH  015%=      5-min Rain = 0
KVA1 241718Z 28009KT 30/00 A2992 RMK A01 T02960001  RH  015%=      5-min Rain = 0
KVA1 241719Z 29007G13KT 30/00 A2992 RMK A01 T02980004  RH  015%=      5-min Rain = 0
KVA1 241720Z 31009KT 30/00 A2992 RMK A01 T030100-0  RH  014%=      5-min Rain = 0
KVA1 241721Z 31007G13KT 30/M01 A2992 RMK A01 T03011006  RH  014%=      5-min Rain = 0
KVA1 241722Z 30009G14KT 30/M00 A2992 RMK A01 T03001004  RH  014%=      5-min Rain = 0
KVA1 241723Z 28007KT 30/M00 A2992 RMK A01 T03011002  RH  014%=      5-min Rain = 0
KVA1 241724Z 30013KT 30/00 A2992 RMK A01 T03020001  RH  014%=      5-min Rain = 0
KVA1 241725Z 31010KT 30/M01 A2992 RMK A01 T03001005  RH  014%=      5-min Rain = 0
KVA1 241726Z 30009KT 30/M00 A2992 RMK A01 T02981004  RH  014%=      5-min Rain = 0
KVA1 241727Z 27011G18KT 30/00 A2992 RMK A01 T02990000  RH  014%=      5-min Rain = 0
KVA1 241728Z 28014KT 30/00 A2992 RMK A01 T03020003  RH  015%=      5-min Rain = 0
KVA1 241729Z 27012G17KT 30/00 A2992 RMK A01 T02990001  RH  015%=      5-min Rain = 0
KVA1 241730Z 26013G18KT 30/M00 A2992 RMK A01 T02951003  RH  015%=      5-min Rain = 0
KVA1 241731Z 27012KT 29/M01 A2992 RMK A01 T02941006  RH  014%=      5-min Rain = 0
KVA1 241732Z 26010KT 29/M01 A2992 RMK A01 T02941009  RH  014%=      5-min Rain = 0
KVA1 241733Z 25008KT 30/M00 A2992 RMK A01 T02951004  RH  014%=      5-min Rain = 0
KVA1 241734Z 25008KT 30/M00 A2992 RMK A01 T02961002  RH  015%=      5-min Rain = 0
KVA1 241735Z 28009KT 30/00 A2992 RMK A01 T03010003  RH  015%=      5-min Rain = 0
KVA1 241736Z 27012KT 31/00 A2992 RMK A01 T03050002  RH  014%=      5-min Rain = 0
KVA1 241737Z 27007KT 30/M00 A2992 RMK A01 T03021001  RH  014%=      5-min Rain = 0
KVA1 241738Z 26010KT 30/00 A2992 RMK A01 T030200-0  RH  014%=      5-min Rain = 0
KVA1 241739Z 27011KT 30/M00 A2992 RMK A01 T03031004  RH  014%=      5-min Rain = 0
KVA1 241740Z 26012KT 30/M00 A2992 RMK A01 T03031003  RH  014%=      5-min Rain = 0
KVA1 241741Z 26008KT 30/M01 A2992 RMK A01 T03001009  RH  014%=      5-min Rain = 0
KVA1 241742Z 26008KT 30/M01 A2992 RMK A01 T02951008  RH  014%=      5-min Rain = 0
KVA1 241743Z 27010G15KT 30/M00 A2992 RMK A01 T02951004  RH  014%=      5-min Rain = 0
KVA1 241744Z 28014KT 30/M00 A2992 RMK A01 T02981002  RH  014%=      5-min Rain = 0
KVA1 241745Z 28014KT 30/M00 A2992 RMK A01 T03001003  RH  014%=      5-min Rain = 0
KVA1 241746Z 30009KT 30/M01 A2992 RMK A01 T02981005  RH  014%=      5-min Rain = 0
KVA1 241747Z 31011KT 30/M01 A2992 RMK A01 T02961005  RH  014%=      5-min Rain = 0
KVA1 241748Z 30007KT 30/M01 A2992 RMK A01 T02951006  RH  014%=      5-min Rain = 0
KVA1 241749Z 31007KT 29/M01 A2992 RMK A01 T02931006  RH  014%=      5-min Rain = 0
KVA1 241750Z 30007KT 29/M01 A2992 RMK A01 T02931007  RH  014%=      5-min Rain = 0
KVA1 241751Z 27007G16KT 30/M00 A2991 RMK A01 T02951003  RH  015%=      5-min Rain = 0
KVA1 241752Z 27013KT 30/M01 A2991 RMK A01 T03001006  RH  014%=      5-min Rain = 0
KVA1 241753Z 31009KT 30/M01 A2991 RMK A01 T03001009  RH  014%=      5-min Rain = 0
KVA1 241754Z 29011KT 30/M01 A2992 RMK A01 T02981012  RH  013%=      5-min Rain = 0
KVA1 241755Z 30008KT 30/M02 A2992 RMK A01 T02981016  RH  013%=      5-min Rain = 0
KVA1 241756Z 29012KT 30/M01 A2992 RMK A01 T02961014  RH  013%=      5-min Rain = 0
KVA1 241757Z 29009KT 30/M01 A2992 RMK A01 T02971014  RH  013%=      5-min Rain = 0
KVA1 241758Z 32009KT 30/M02 A2991 RMK A01 T02961019  RH  013%=      5-min Rain = 0
KVA1 241759Z 29004G9KT 29/M02 A2991 RMK A01 T02931020  RH  013%=      5-min Rain = 0
KVA1 241800Z 30006KT 30/M02 A2991 RMK A01 T02971017  RH  013%=      5-min Rain = 0
KVA1 241801Z 28007KT 30/M02 A2991 RMK A01 T02961016  RH  013%=      5-min Rain = 0
KVA1 241802Z 27010KT 30/M02 A2991 RMK A01 T02971017  RH  013%=      5-min Rain = 0
KVA1 241803Z 25016KT 30/M02 A2991 RMK A01 T02971021  RH  013%=      5-min Rain = 0
KVA1 241804Z 25012KT 30/M02 A2991 RMK A01 T02981022  RH  012%=      5-min Rain = 0
KVA1 241805Z 24011G16KT 30/M02 A2991 RMK A01 T03001019  RH  012%=      5-min Rain = 0
KVA1 241806Z 26011KT 30/M02 A2991 RMK A01 T03031021  RH  012%=      5-min Rain = 0
KVA1 241807Z 26011KT 30/M02 A2991 RMK A01 T03011020  RH  012%=      5-min Rain = 0
KVA1 241808Z 28010G16KT 30/M02 A2991 RMK A01 T03031017  RH  013%=      5-min Rain = 0
KVA1 241809Z 28014KT 31/M02 A2991 RMK A01 T03051017  RH  012%=      5-min Rain = 0
KVA1 241810Z 29010KT 30/M02 A2991 RMK A01 T03011021  RH  012%=      5-min Rain = 0
KVA1 241811Z 29008G14KT 30/M02 A2991 RMK A01 T02981022  RH  012%=      5-min Rain = 0
KVA1 241812Z 30009G15KT 30/M02 A2991 RMK A01 T02991023  RH  012%=      5-min Rain = 0
KVA1 241813Z 28007KT 30/M03 A2991 RMK A01 T02961026  RH  012%=      5-min Rain = 0
KVA1 241814Z 27010KT 30/M03 A2991 RMK A01 T02951025  RH  012%=      5-min Rain = 0
KVA1 241815Z 27012KT 30/M02 A2991 RMK A01 T02981024  RH  012%=      5-min Rain = 0
KVA1 241816Z 27010KT 30/M03 A2991 RMK A01 T02991029  RH  012%=      5-min Rain = 0
KVA1 241817Z 27009KT 30/M03 A2991 RMK A01 T02981029  RH  012%=      5-min Rain = 0
KVA1 241818Z 28005KT 30/M03 A2991 RMK A01 T02991029  RH  012%=      5-min Rain = 0
KVA1 241819Z 26008G14KT 30/M03 A2991 RMK A01 T02991025  RH  012%=      5-min Rain = 0
KVA1 241820Z 27011KT 30/M02 A2991 RMK A01 T03021023  RH  012%=      5-min Rain = 0
KVA1 241821Z 27012KT 30/M02 A2991 RMK A01 T03031022  RH  012%=      5-min Rain = 0
KVA1 241822Z 25008KT 30/M02 A299 RMK A01 T03021022  RH  012%=      5-min Rain = 0
KVA1 241823Z 25007KT 30/M03 A299 RMK A01 T03001026  RH  012%=      5-min Rain = 0
KVA1 241824Z 28012KT 30/M02 A299 RMK A01 T02991024  RH  012%=      5-min Rain = 0
KVA1 241825Z 31011KT 30/M03 A299 RMK A01 T03001025  RH  012%=      5-min Rain = 0
KVA1 241826Z 28010KT 30/M02 A299 RMK A01 T03031024  RH  012%=      5-min Rain = 0
KVA1 241827Z 27011G16KT 30/M02 A299 RMK A01 T03031021  RH  012%=      5-min Rain = 0
KVA1 241828Z 26013KT 31/M02 A299 RMK A01 T03061020  RH  012%=      5-min Rain = 0
KVA1 241829Z 27012KT 31/M02 A299 RMK A01 T03061024  RH  012%=      5-min Rain = 0
KVA1 241830Z 27010KT 30/M03 A299 RMK A01 T03031026  RH  012%=      5-min Rain = 0
KVA1 241831Z 26007KT 30/M03 A299 RMK A01 T03031028  RH  012%=      5-min Rain = 0
KVA1 241832Z 24007KT 30/M03 A299 RMK A01 T03031028  RH  012%=      5-min Rain = 0
KVA1 241833Z 27010KT 30/M03 A299 RMK A01 T03041026  RH  012%=      5-min Rain = 0
KVA1 241834Z 25011KT 30/M03 A299 RMK A01 T03041030  RH  011%=      5-min Rain = 0
KVA1 241835Z 25011KT 30/M03 A299 RMK A01 T03031033  RH  011%=      5-min Rain = 0
KVA1 241836Z 22010G16KT 30/M03 A299 RMK A01 T03031032  RH  011%=      5-min Rain = 0
KVA1 241837Z 21009KT 30/M03 A299 RMK A01 T03031030  RH  011%=      5-min Rain = 0
KVA1 241838Z 22011G16KT 30/M03 A299 RMK A01 T03041030  RH  011%=      5-min Rain = 0
KVA1 241839Z 23013KT 31/M03 A299 RMK A01 T03051030  RH  011%=      5-min Rain = 0
KVA1 241840Z 24014KT 31/M03 A299 RMK A01 T03061030  RH  011%=      5-min Rain = 0
KVA1 241841Z 24009G14KT 31/M03 A299 RMK A01 T03061032  RH  011%=      5-min Rain = 0
KVA1 241842Z 25008G16KT 31/M03 A299 RMK A01 T03091029  RH  011%=      5-min Rain = 0
KVA1 241843Z 26015KT 31/M03 A299 RMK A01 T03131028  RH  011%=      5-min Rain = 0
KVA1 241844Z 26011KT 31/M03 A299 RMK A01 T03081033  RH  011%=      5-min Rain = 0
KVA1 241845Z 25012KT 31/M03 A299 RMK A01 T03051028  RH  011%=      5-min Rain = 0
KVA1 241846Z 25009KT 31/M03 A299 RMK A01 T03061026  RH  011%=      5-min Rain = 0
KVA1 241847Z 29013KT 31/M03 A299 RMK A01 T03091029  RH  011%=      5-min Rain = 0
KVA1 241848Z 28008G13KT 31/M03 A299 RMK A01 T03081030  RH  011%=      5-min Rain = 0
KVA1 241849Z 28009G15KT 31/M03 A299 RMK A01 T03091027  RH  011%=      5-min Rain = 0
KVA1 241850Z 28009G14KT 31/M03 A299 RMK A01 T03101027  RH  011%=      5-min Rain = 0
KVA1 241851Z 25009G14KT 31/M03 A299 RMK A01 T03081030  RH  011%=      5-min Rain = 0
KVA1 241852Z 26015KT 31/M03 A299 RMK A01 T03081031  RH  011%=      5-min Rain = 0
KVA1 241853Z 27014KT 31/M03 A299 RMK A01 T03101028  RH  011%=      5-min Rain = 0
KVA1 241854Z 27013KT 31/M03 A299 RMK A01 T03071030  RH  011%=      5-min Rain = 0
KVA1 241855Z 26008G13KT 31/M03 A299 RMK A01 T03051030  RH  011%=      5-min Rain = 0
KVA1 241856Z 24007KT 31/M03 A2989 RMK A01 T03051029  RH  011%=      5-min Rain = 0
KVA1 241857Z 25007KT 30/M03 A2989 RMK A01 T03031028  RH  012%=      5-min Rain = 0
KVA1 241858Z 26013KT 31/M03 A2989 RMK A01 T03051028  RH  011%=      5-min Rain = 0
KVA1 241859Z 27015KT 31/M03 A2989 RMK A01 T03071034  RH  011%=      5-min Rain = 0
KVA1 241900Z 26012KT 30/M04 A2989 RMK A01 T03041038  RH  011%=      5-min Rain = 0
KVA1 241901Z 25013KT 30/M04 A2989 RMK A01 T03031038  RH  011%=      5-min Rain = 0
KVA1 241902Z 25009KT 31/M04 A2989 RMK A01 T03051043  RH  010%=      5-min Rain = 0
KVA1 241903Z 27009KT 30/M04 A2989 RMK A01 T03041041  RH  010%=      5-min Rain = 0
KVA1 241904Z 28006KT 31/M03 A2989 RMK A01 T03081034  RH  011%=      5-min Rain = 0
KVA1 241905Z 28009KT 31/M04 A2989 RMK A01 T03111036  RH  010%=      5-min Rain = 0
KVA1 241906Z 27014KT 31/M03 A2989 RMK A01 T03141030  RH  011%=      5-min Rain = 0
KVA1 241907Z 26011G16KT 31/M03 A2989 RMK A01 T03141033  RH  010%=      5-min Rain = 0
KVA1 241908Z 26011KT 31/M03 A2989 RMK A01 T03141031  RH  011%=      5-min Rain = 0
KVA1 241909Z 25006KT 31/M03 A2989 RMK A01 T03091032  RH  011%=      5-min Rain = 0
KVA1 241910Z 23006KT 30/M04 A2988 RMK A01 T03041036  RH  011%=      5-min Rain = 0
KVA1 241911Z 26011G18KT 30/M03 A2988 RMK A01 T03041033  RH  011%=      5-min Rain = 0
KVA1 241912Z 27016KT 31/M03 A2989 RMK A01 T03071028  RH  011%=      5-min Rain = 0
KVA1 241913Z 27014KT 31/M03 A2989 RMK A01 T03091027  RH  011%=      5-min Rain = 0
KVA1 241914Z 28014KT 31/M03 A2989 RMK A01 T03071029  RH  011%=      5-min Rain = 0
KVA1 241915Z 29010KT 31/M03 A2989 RMK A01 T03061030  RH  011%=      5-min Rain = 0
KVA1 241916Z 30008KT 31/M03 A2988 RMK A01 T03061032  RH  011%=      5-min Rain = 0
KVA1 241917Z 30006KT 30/M03 A2988 RMK A01 T03041032  RH  011%=      5-min Rain = 0
KVA1 241918Z 29011KT 31/M03 A2988 RMK A01 T03061030  RH  011%=      5-min Rain = 0
KVA1 241919Z 29011KT 31/M03 A2988 RMK A01 T03071031  RH  011%=      5-min Rain = 0
KVA1 241920Z 28013KT 31/M03 A2988 RMK A01 T03091034  RH  011%=      5-min Rain = 0
KVA1 241921Z 28014KT 31/M05 A2988 RMK A01 T03111045  RH  010%=      5-min Rain = 0
KVA1 241922Z 24009KT 32/M04 A2988 RMK A01 T03151044  RH  010%=      5-min Rain = 0
KVA1 241923Z 24009G14KT 32/M04 A2988 RMK A01 T03221042  RH  009%=      5-min Rain = 0
KVA1 241924Z 24010KT 32/M05 A2988 RMK A01 T03231051  RH  009%=      5-min Rain = 0
KVA1 241925Z 25009KT 32/M05 A2988 RMK A01 T03211054  RH  009%=      5-min Rain = 0
KVA1 241926Z 28009KT 32/M05 A2988 RMK A01 T03201049  RH  009%=      5-min Rain = 0
KVA1 241927Z 27007KT 31/M05 A2988 RMK A01 T03131047  RH  009%=      5-min Rain = 0
KVA1 241928Z 27012KT 31/M04 A2988 RMK A01 T03101044  RH  010%=      5-min Rain = 0
KVA1 241929Z 28013KT 31/M04 A2988 RMK A01 T03101042  RH  010%=      5-min Rain = 0
KVA1 241930Z 27015KT 31/M04 A2988 RMK A01 T03111041  RH  010%=      5-min Rain = 0
KVA1 241931Z 28011KT 31/M04 A2988 RMK A01 T03111037  RH  010%=      5-min Rain = 0
KVA1 241932Z 29009KT 31/M04 A2988 RMK A01 T03121037  RH  010%=      5-min Rain = 0
KVA1 241933Z 25006KT 31/M04 A2988 RMK A01 T03101040  RH  010%=      5-min Rain = 0
KVA1 241934Z 26006KT 31/M04 A2988 RMK A01 T03081041  RH  010%=      5-min Rain = 0
KVA1 241935Z 29006KT 31/M04 A2988 RMK A01 T03061042  RH  010%=      5-min Rain = 0
KVA1 241936Z 28009KT 31/M04 A2988 RMK A01 T03051043  RH  010%=      5-min Rain = 0
KVA1 241937Z 29013KT 30/M04 A2988 RMK A01 T03041044  RH  010%=      5-min Rain = 0
KVA1 241938Z 30011KT 31/M04 A2987 RMK A01 T03061044  RH  010%=      5-min Rain = 0
KVA1 241939Z 30009KT 31/M04 A2987 RMK A01 T03091044  RH  010%=      5-min Rain = 0
KVA1 241940Z 28011KT 31/M04 A2987 RMK A01 T03111043  RH  010%=      5-min Rain = 0
KVA1 241941Z 24012KT 32/M04 A2987 RMK A01 T03171041  RH  010%=      5-min Rain = 0
KVA1 241942Z 27014KT 32/M04 A2987 RMK A01 T03181043  RH  009%=      5-min Rain = 0
KVA1 241943Z 26013KT 32/M05 A2987 RMK A01 T03191046  RH  009%=      5-min Rain = 0
KVA1 241944Z 26013G18KT 32/M05 A2987 RMK A01 T03151051  RH  009%=      5-min Rain = 0
KVA1 241945Z 26014G21KT 31/M05 A2987 RMK A01 T03141049  RH  009%=      5-min Rain = 0
KVA1 241946Z 27016G22KT 31/M05 A2987 RMK A01 T03141048  RH  009%=      5-min Rain = 0
KVA1 241947Z 28014KT 31/M05 A2987 RMK A01 T03101049  RH  009%=      5-min Rain = 0
KVA1 241948Z 27013KT 31/M05 A2987 RMK A01 T03091049  RH  010%=      5-min Rain = 0
KVA1 241949Z 26007KT 31/M05 A2987 RMK A01 T03061052  RH  009%=      5-min Rain = 0
KVA1 241950Z 26008G14KT 31/M05 A2987 RMK A01 T03061050  RH  010%=      5-min Rain = 0
KVA1 241951Z 28014KT 31/M05 A2987 RMK A01 T03081047  RH  010%=      5-min Rain = 0
KVA1 241952Z 28012G17KT 31/M05 A2987 RMK A01 T03111050  RH  009%=      5-min Rain = 0
KVA1 241953Z 28009KT 31/M05 A2987 RMK A01 T03101053  RH  009%=      5-min Rain = 0
KVA1 241954Z 27013G18KT 31/M05 A2987 RMK A01 T03091051  RH  009%=      5-min Rain = 0
KVA1 241955Z 26012KT 31/M05 A2987 RMK A01 T03101047  RH  010%=      5-min Rain = 0
KVA1 241956Z 26014KT 31/M05 A2987 RMK A01 T03131046  RH  010%=      5-min Rain = 0
KVA1 241957Z 28010KT 31/M05 A2987 RMK A01 T03141047  RH  009%=      5-min Rain = 0
KVA1 241958Z 28009KT 31/M05 A2987 RMK A01 T03111046  RH  010%=      5-min Rain = 0
KVA1 241959Z 26006KT 31/M05 A2986 RMK A01 T03091046  RH  010%=      5-min Rain = 0
KVA1 242000Z 27007KT 31/M05 A2986 RMK A01 T03081045  RH  010%=      5-min Rain = 0
KVA1 242001Z 27012KT 31/M04 A2986 RMK A01 T03091042  RH  010%=      5-min Rain = 0
KVA1 242002Z 30011KT 32/M04 A2986 RMK A01 T03181039  RH  010%=      5-min Rain = 0
KVA1 242003Z 28012G17KT 32/M04 A2986 RMK A01 T03191043  RH  009%=      5-min Rain = 0
KVA1 242004Z 26012KT 32/M05 A2986 RMK A01 T03171050  RH  009%=      5-min Rain = 0
KVA1 242005Z 24011KT 32/M05 A2987 RMK A01 T03191052  RH  009%=      5-min Rain = 0
KVA1 242006Z 25009KT 32/M05 A2987 RMK A01 T03211052  RH  009%=      5-min Rain = 0
KVA1 242007Z 24007KT 32/M06 A2986 RMK A01 T03171056  RH  009%=      5-min Rain = 0
KVA1 242008Z 24006KT 31/M06 A2986 RMK A01 T03131055  RH  009%=      5-min Rain = 0
KVA1 242009Z 24011KT 31/M05 A2986 RMK A01 T03131053  RH  009%=      5-min Rain = 0
KVA1 242010Z 24017G22KT 32/M05 A2986 RMK A01 T03151051  RH  009%=      5-min Rain = 0
KVA1 242011Z 24014KT 32/M05 A2986 RMK A01 T03201048  RH  009%=      5-min Rain = 0
KVA1 242012Z 25014KT 32/M05 A2986 RMK A01 T03231048  RH  009%=      5-min Rain = 0
KVA1 242013Z 25012KT 32/M05 A2986 RMK A01 T03211051  RH  009%=      5-min Rain = 0
KVA1 242014Z 25006KT 32/M05 A2986 RMK A01 T03161051  RH  009%=      5-min Rain = 0
KVA1 242015Z 22006KT 32/M05 A2986 RMK A01 T03161050  RH  009%=      5-min Rain = 0
KVA1 242016Z 25006KT 32/M05 A2986 RMK A01 T03151048  RH  009%=      5-min Rain = 0
KVA1 242017Z 27010KT 31/M05 A2986 RMK A01 T03131048  RH  009%=      5-min Rain = 0
KVA1 242018Z 28006KT 31/M05 A2986 RMK A01 T03131050  RH  009%=      5-min Rain = 0
KVA1 242019Z 30005KT 31/M05 A2986 RMK A01 T03091052  RH  009%=      5-min Rain = 0
KVA1 242020Z 23009G18KT 31/M05 A2986 RMK A01 T03081049  RH  010%=      5-min Rain = 0
KVA1 242021Z 28010KT 31/M04 A2986 RMK A01 T03111043  RH  010%=      5-min Rain = 0
KVA1 242022Z 25010KT 32/M04 A2986 RMK A01 T03151041  RH  010%=      5-min Rain = 0
KVA1 242023Z 26008KT 32/M05 A2986 RMK A01 T03151045  RH  010%=      5-min Rain = 0
KVA1 242024Z 27009G14KT 32/M04 A2986 RMK A01 T03151042  RH  010%=      5-min Rain = 0
KVA1 242025Z 26013KT 32/M05 A2986 RMK A01 T03171046  RH  009%=      5-min Rain = 0
KVA1 242026Z 24014G19KT 32/M05 A2986 RMK A01 T03161053  RH  009%=      5-min Rain = 0
KVA1 242027Z 25016KT 32/M05 A2986 RMK A01 T03181050  RH  009%=      5-min Rain = 0
KVA1 242028Z 25013G19KT 32/M05 A2986 RMK A01 T03181052  RH  009%=      5-min Rain = 0
KVA1 242029Z 28014G19KT 32/M05 A2986 RMK A01 T03171052  RH  009%=      5-min Rain = 0
KVA1 242030Z 28013KT 32/M05 A2986 RMK A01 T03151054  RH  009%=      5-min Rain = 0
KVA1 242031Z 27014G19KT 31/M05 A2986 RMK A01 T03131051  RH  009%=      5-min Rain = 0
KVA1 242032Z 27011KT 31/M05 A2986 RMK A01 T03131050  RH  009%=      5-min Rain = 0
KVA1 242033Z 26012KT 31/M05 A2986 RMK A01 T03111049  RH  009%=      5-min Rain = 0
KVA1 242034Z 25010KT 31/M05 A2986 RMK A01 T03111053  RH  009%=      5-min Rain = 0
KVA1 242035Z 25006KT 31/M05 A2986 RMK A01 T03111054  RH  009%=      5-min Rain = 0
KVA1 242036Z 25006KT 31/M05 A2985 RMK A01 T03121049  RH  009%=      5-min Rain = 0
KVA1 242037Z 24006KT 31/M05 A2985 RMK A01 T03131049  RH  009%=      5-min Rain = 0
KVA1 242038Z 23002KT 31/M05 A2985 RMK A01 T03131048  RH  009%=      5-min Rain = 0
KVA1 242039Z 21005KT 31/M05 A2985 RMK A01 T03111050  RH  009%=      5-min Rain = 0
KVA1 242040Z 23003KT 31/M05 A2985 RMK A01 T03091050  RH  009%=      5-min Rain = 0
KVA1 242041Z 22002KT 31/M05 A2985 RMK A01 T03081049  RH  010%=      5-min Rain = 0
KVA1 242042Z 25004KT 31/M05 A2985 RMK A01 T03081048  RH  010%=      5-min Rain = 0
KVA1 242043Z 27005KT 31/M05 A2985 RMK A01 T03071048  RH  010%=      5-min Rain = 0
KVA1 242044Z 26007KT 31/M05 A2985 RMK A01 T03091045  RH  010%=      5-min Rain = 0
KVA1 242045Z 26011G16KT 31/M04 A2985 RMK A01 T03111043  RH  010%=      5-min Rain = 0
KVA1 242046Z 26011G16KT 32/M04 A2985 RMK A01 T03171038  RH  010%=      5-min Rain = 0
KVA1 242047Z 28017KT 32/M04 A2985 RMK A01 T03181038  RH  010%=      5-min Rain = 0
KVA1 242048Z 26011G16KT 32/M04 A2985 RMK A01 T03171040  RH  010%=      5-min Rain = 0
KVA1 242049Z 26010KT 32/M04 A2985 RMK A01 T03151043  RH  010%=      5-min Rain = 0
KVA1 242050Z 25006KT 31/M05 A2984 RMK A01 T03111045  RH  010%=      5-min Rain = 0
KVA1 242051Z 28006KT 31/M04 A2984 RMK A01 T03101044  RH  010%=      5-min Rain = 0
KVA1 242052Z 28009KT 31/M04 A2984 RMK A01 T03091043  RH  010%=      5-min Rain = 0
KVA1 242053Z 28009KT 31/M04 A2984 RMK A01 T03101041  RH  010%=      5-min Rain = 0
KVA1 242054Z 28010KT 31/M04 A2984 RMK A01 T03131040  RH  010%=      5-min Rain = 0
KVA1 242055Z 28008KT 32/M04 A2984 RMK A01 T03161040  RH  010%=      5-min Rain = 0
KVA1 242056Z 27011G17KT 32/M04 A2984 RMK A01 T03171040  RH  010%=      5-min Rain = 0
KVA1 242057Z 27010KT 32/M04 A2984 RMK A01 T03191040  RH  010%=      5-min Rain = 0
KVA1 242058Z 26010G17KT 32/M04 A2984 RMK A01 T03221040  RH  009%=      5-min Rain = 0
KVA1 242059Z 26015G20KT 32/M04 A2984 RMK A01 T03241041  RH  009%=      5-min Rain = 0
KVA1 242100Z 24014KT 33/M04 A2984 RMK A01 T03251039  RH  009%=      5-min Rain = 0
KVA1 242101Z 23015KT 33/M04 A2984 RMK A01 T03261040  RH  009%=      5-min Rain = 0
KVA1 242102Z 25016G21KT 33/M04 A2984 RMK A01 T03251041  RH  009%=      5-min Rain = 0
KVA1 242103Z 25013KT 32/M04 A2984 RMK A01 T03221042  RH  009%=      5-min Rain = 0
KVA1 242104Z 24009G14KT 32/M04 A2984 RMK A01 T03201043  RH  009%=      5-min Rain = 0
KVA1 242105Z 25006KT 32/M05 A2984 RMK A01 T03181045  RH  009%=      5-min Rain = 0
KVA1 242106Z 28010KT 31/M05 A2984 RMK A01 T03141045  RH  010%=      5-min Rain = 0
KVA1 242107Z 25012KT 31/M04 A2983 RMK A01 T03141042  RH  010%=      5-min Rain = 0
KVA1 242108Z 27012KT 32/M04 A2984 RMK A01 T03191044  RH  009%=      5-min Rain = 0
KVA1 242109Z 27008KT 32/M05 A2983 RMK A01 T03161051  RH  009%=      5-min Rain = 0
KVA1 242110Z 25007KT 31/M05 A2983 RMK A01 T03101050  RH  009%=      5-min Rain = 0
KVA1 242111Z 26006KT 31/M05 A2983 RMK A01 T03131047  RH  009%=      5-min Rain = 0
KVA1 242112Z 24006KT 32/M05 A2983 RMK A01 T03161046  RH  009%=      5-min Rain = 0
KVA1 242113Z 23007KT 32/M05 A2983 RMK A01 T03171045  RH  009%=      5-min Rain = 0
KVA1 242114Z 22007KT 32/M05 A2983 RMK A01 T03171045  RH  009%=      5-min Rain = 0
KVA1 242115Z 22010KT 32/M04 A2983 RMK A01 T03171043  RH  009%=      5-min Rain = 0
KVA1 242116Z 22008KT 32/M04 A2983 RMK A01 T03171044  RH  009%=      5-min Rain = 0
KVA1 242117Z 24010G16KT 32/M04 A2983 RMK A01 T03161043  RH  010%=      5-min Rain = 0
KVA1 242118Z 28014G20KT 32/M04 A2983 RMK A01 T03191040  RH  010%=      5-min Rain = 0
KVA1 242119Z 28016KT 32/M04 A2983 RMK A01 T03201038  RH  010%=      5-min Rain = 0
KVA1 242120Z 28015G21KT 32/M04 A2982 RMK A01 T03191038  RH  010%=      5-min Rain = 0
KVA1 242121Z 27018KT 32/M04 A2982 RMK A01 T03191037  RH  010%=      5-min Rain = 0
KVA1 242122Z 27018KT 32/M04 A2983 RMK A01 T03211036  RH  010%=      5-min Rain = 0
KVA1 242123Z 28015KT 32/M04 A2983 RMK A01 T03211039  RH  010%=      5-min Rain = 0
KVA1 242124Z 28012G18KT 32/M04 A2983 RMK A01 T03161041  RH  010%=      5-min Rain = 0
KVA1 242125Z 34011KT 31/M04 A2982 RMK A01 T03111042  RH  010%=      5-min Rain = 0
KVA1 242126Z 31004KT 31/M04 A2982 RMK A01 T03101040  RH  010%=      5-min Rain = 0
KVA1 242127Z 22007KT 31/M04 A2982 RMK A01 T03131039  RH  010%=      5-min Rain = 0
KVA1 242128Z 20008KT 32/M04 A2982 RMK A01 T03151038  RH  010%=      5-min Rain = 0
KVA1 242129Z 20011KT 32/M04 A2982 RMK A01 T03171038  RH  010%=      5-min Rain = 0
KVA1 242130Z 21009KT 32/M04 A2982 RMK A01 T03161039  RH  010%=      5-min Rain = 0
KVA1 242131Z 22006KT 31/M04 A2982 RMK A01 T03121039  RH  010%=      5-min Rain = 0
KVA1 242132Z 21004KT 31/M04 A2982 RMK A01 T03091041  RH  010%=      5-min Rain = 0
KVA1 242133Z 27009G15KT 31/M04 A2982 RMK A01 T03081039  RH  010%=      5-min Rain = 0
KVA1 242134Z 28013KT 31/M04 A2982 RMK A01 T03141035  RH  010%=      5-min Rain = 0
KVA1 242135Z 25011KT 32/M04 A2981 RMK A01 T03151038  RH  010%=      5-min Rain = 0
KVA1 242136Z 28015KT 32/M04 A2981 RMK A01 T03171038  RH  010%=      5-min Rain = 0
KVA1 242137Z 29017KT 32/M04 A2982 RMK A01 T03201036  RH  010%=      5-min Rain = 0
KVA1 242138Z 29016G21KT 32/M04 A2981 RMK A01 T03201040  RH  010%=      5-min Rain = 0
KVA1 242139Z 28018G24KT 32/M04 A2982 RMK A01 T03171041  RH  010%=      5-min Rain = 0
KVA1 242140Z 30015G21KT 32/M04 A2981 RMK A01 T03161040  RH  010%=      5-min Rain = 0
KVA1 242141Z 29018KT 32/M04 A2981 RMK A01 T03181040  RH  010%=      5-min Rain = 0
KVA1 242142Z 29018KT 32/M04 A2982 RMK A01 T03171041  RH  010%=      5-min Rain = 0
KVA1 242143Z 29016G22KT 31/M04 A2982 RMK A01 T03141042  RH  010%=      5-min Rain = 0
KVA1 242144Z 29013G19KT 31/M04 A2981 RMK A01 T03131040  RH  010%=      5-min Rain = 0
KVA1 242145Z 28013KT 32/M04 A2981 RMK A01 T03181037  RH  010%=      5-min Rain = 0
KVA1 242146Z 29014KT 32/M04 A2981 RMK A01 T03201041  RH  010%=      5-min Rain = 0
KVA1 242147Z 28016KT 32/M04 A2981 RMK A01 T03191043  RH  009%=      5-min Rain = 0
KVA1 242148Z 28014KT 32/M04 A2981 RMK A01 T03161042  RH  010%=      5-min Rain = 0
KVA1 242149Z 27014KT 32/M04 A2981 RMK A01 T03151042  RH  010%=      5-min Rain = 0
KVA1 242150Z 26012KT 32/M04 A2981 RMK A01 T03161042  RH  010%=      5-min Rain = 0
KVA1 242151Z 24011KT 32/M04 A2981 RMK A01 T03151043  RH  010%=      5-min Rain = 0
KVA1 242152Z 23009KT 32/M04 A2981 RMK A01 T03151043  RH  010%=      5-min Rain = 0
KVA1 242153Z 25007KT 31/M04 A2981 RMK A01 T03141042  RH  010%=      5-min Rain = 0
KVA1 242154Z 26006KT 32/M04 A2981 RMK A01 T03151042  RH  010%=      5-min Rain = 0
KVA1 242155Z 24005KT 32/M04 A2981 RMK A01 T03171042  RH  010%=      5-min Rain = 0
KVA1 242156Z 24006KT 32/M04 A2981 RMK A01 T03171041  RH  010%=      5-min Rain = 0
KVA1 242157Z 24008KT 32/M04 A298 RMK A01 T03151043  RH  010%=      5-min Rain = 0
KVA1 242158Z 23008KT 31/M04 A298 RMK A01 T03131043  RH  010%=      5-min Rain = 0
KVA1 242159Z 27006KT 31/M05 A298 RMK A01 T03111046  RH  010%=      5-min Rain = 0
KVA1 242200Z 26004KT 31/M05 A298 RMK A01 T03121048  RH  009%=      5-min Rain = 0
KVA1 242201Z 26006KT 31/M05 A298 RMK A01 T03131045  RH  010%=      5-min Rain = 0
KVA1 242202Z 26007KT 32/M04 A2981 RMK A01 T03151044  RH  010%=      5-min Rain = 0
KVA1 242203Z 26010KT 32/M04 A298 RMK A01 T03171042  RH  010%=      5-min Rain = 0
KVA1 242204Z 28014KT 32/M04 A298 RMK A01 T03191040  RH  010%=      5-min Rain = 0
KVA1 242205Z 29015KT 32/M04 A298 RMK A01 T03181043  RH  009%=      5-min Rain = 0
KVA1 242206Z 27012G20KT 32/M04 A298 RMK A01 T03161040  RH  010%=      5-min Rain = 0
KVA1 242207Z 26010G18KT 32/M04 A298 RMK A01 T03181039  RH  010%=      5-min Rain = 0
KVA1 242208Z 25013G19KT 32/M04 A298 RMK A01 T03231040  RH  009%=      5-min Rain = 0
KVA1 242209Z 25016KT 32/M04 A298 RMK A01 T03231038  RH  010%=      5-min Rain = 0
KVA1 242210Z 25014KT 32/M04 A298 RMK A01 T03231038  RH  010%=      5-min Rain = 0
KVA1 242211Z 25016KT 32/M04 A298 RMK A01 T03201039  RH  010%=      5-min Rain = 0
KVA1 242212Z 27012KT 32/M04 A298 RMK A01 T03181041  RH  010%=      5-min Rain = 0
KVA1 242213Z 27015KT 32/M04 A298 RMK A01 T03161040  RH  010%=      5-min Rain = 0
KVA1 242214Z 26004G13KT 31/M04 A298 RMK A01 T03121042  RH  010%=      5-min Rain = 0
KVA1 242215Z 27006KT 31/M04 A298 RMK A01 T03101041  RH  010%=      5-min Rain = 0
KVA1 242216Z 28011G19KT 31/M04 A298 RMK A01 T03131037  RH  010%=      5-min Rain = 0
KVA1 242217Z 26013KT 32/M04 A298 RMK A01 T03191036  RH  010%=      5-min Rain = 0
KVA1 242218Z 26016G21KT 32/M04 A298 RMK A01 T03191038  RH  010%=      5-min Rain = 0
KVA1 242219Z 27014KT 32/M04 A298 RMK A01 T03191039  RH  010%=      5-min Rain = 0
KVA1 242220Z 26017KT 32/M04 A298 RMK A01 T03191040  RH  010%=      5-min Rain = 0
KVA1 242221Z 26012KT 32/M04 A298 RMK A01 T03181040  RH  010%=      5-min Rain = 0
KVA1 242222Z 25010KT 32/M04 A298 RMK A01 T03181038  RH  010%=      5-min Rain = 0
KVA1 242223Z 27011KT 32/M04 A298 RMK A01 T03191038  RH  010%=      5-min Rain = 0
KVA1 242224Z 26011KT 32/M04 A298 RMK A01 T03191037  RH  010%=      5-min Rain = 0
KVA1 242225Z 25005KT 32/M04 A2979 RMK A01 T03161041  RH  010%=      5-min Rain = 0
KVA1 242226Z 23004KT 31/M04 A2979 RMK A01 T03121041  RH  010%=      5-min Rain = 0
KVA1 242227Z 27004KT 31/M04 A2979 RMK A01 T03131038  RH  010%=      5-min Rain = 0
KVA1 242228Z 28005KT 31/M04 A2979 RMK A01 T03141038  RH  010%=      5-min Rain = 0
KVA1 242229Z 25007G12KT 32/M04 A2979 RMK A01 T03161036  RH  010%=      5-min Rain = 0
KVA1 242230Z 23009KT 32/M04 A2979 RMK A01 T03181036  RH  010%=      5-min Rain = 0
KVA1 242231Z 23008KT 32/M04 A2979 RMK A01 T03201036  RH  010%=      5-min Rain = 0
KVA1 242232Z 25007KT 32/M04 A2979 RMK A01 T03211036  RH  010%=      5-min Rain = 0
KVA1 242233Z 26011KT 32/M04 A2979 RMK A01 T03181038  RH  010%=      5-min Rain = 0
KVA1 242234Z 28010KT 32/M04 A2979 RMK A01 T03181037  RH  010%=      5-min Rain = 0
KVA1 242235Z 29010G15KT 32/M03 A2979 RMK A01 T03181033  RH  010%=      5-min Rain = 0
KVA1 242236Z 30009KT 32/M04 A2979 RMK A01 T03181035  RH  010%=      5-min Rain = 0
KVA1 242237Z 30013G18KT 32/M03 A2979 RMK A01 T03161034  RH  010%=      5-min Rain = 0
KVA1 242238Z 30015KT 32/M03 A2978 RMK A01 T03161033  RH  010%=      5-min Rain = 0
KVA1 242239Z 29013KT 32/M03 A2979 RMK A01 T03181033  RH  010%=      5-min Rain = 0
KVA1 242240Z 29008KT 32/M03 A2979 RMK A01 T03171033  RH  010%=      5-min Rain = 0
KVA1 242241Z 30013KT 32/M03 A2979 RMK A01 T03171032  RH  010%=      5-min Rain = 0
KVA1 242242Z 26015KT 32/M03 A2979 RMK A01 T03201030  RH  010%=      5-min Rain = 0
KVA1 242243Z 25013KT 32/M03 A2978 RMK A01 T03191031  RH  010%=      5-min Rain = 0
KVA1 242244Z 27011KT 32/M03 A2978 RMK A01 T03181031  RH  010%=      5-min Rain = 0
KVA1 242245Z 28013G19KT 32/M03 A2978 RMK A01 T03191028  RH  011%=      5-min Rain = 0
KVA1 242246Z 28014KT 32/M03 A2978 RMK A01 T03221026  RH  010%=      5-min Rain = 0
KVA1 242247Z 28013KT 32/M03 A2978 RMK A01 T03221028  RH  010%=      5-min Rain = 0
KVA1 242248Z 27008KT 32/M03 A2978 RMK A01 T03201028  RH  010%=      5-min Rain = 0
KVA1 242249Z 30007KT 32/M03 A2978 RMK A01 T03201027  RH  011%=      5-min Rain = 0
KVA1 242250Z 28009KT 32/M03 A2978 RMK A01 T03191027  RH  011%=      5-min Rain = 0
KVA1 242251Z 29007KT 32/M03 A2978 RMK A01 T03191028  RH  011%=      5-min Rain = 0
KVA1 242252Z 31009G15KT 32/M03 A2978 RMK A01 T03191027  RH  011%=      5-min Rain = 0
KVA1 242253Z 28011KT 32/M03 A2978 RMK A01 T03201026  RH  011%=      5-min Rain = 0
KVA1 242254Z 30010G15KT 32/M03 A2978 RMK A01 T03181028  RH  011%=      5-min Rain = 0
KVA1 242255Z 31011KT 32/M03 A2978 RMK A01 T03151028  RH  011%=      5-min Rain = 0
KVA1 242256Z 29013KT 32/M03 A2978 RMK A01 T03161027  RH  011%=      5-min Rain = 0
KVA1 242257Z 28014KT 32/M03 A2978 RMK A01 T03161027  RH  011%=      5-min Rain = 0
KVA1 242258Z 27016KT 32/M03 A2978 RMK A01 T03151027  RH  011%=      5-min Rain = 0
KVA1 242259Z 28011KT 31/M03 A2978 RMK A01 T03141027  RH  011%=      5-min Rain = 0
KVA1 242300Z 28019KT 32/M03 A2978 RMK A01 T03151026  RH  011%=      5-min Rain = 0
KVA1 242301Z 26013G18KT 32/M03 A2978 RMK A01 T03161026  RH  011%=      5-min Rain = 0
KVA1 242302Z 27014KT 32/M03 A2978 RMK A01 T03151027  RH  011%=      5-min Rain = 0
KVA1 242303Z 27015KT 32/M03 A2978 RMK A01 T03151027  RH  011%=      5-min Rain = 0
KVA1 242304Z 27012KT 31/M03 A2978 RMK A01 T03131029  RH  011%=      5-min Rain = 0
KVA1 242305Z 29009KT 31/M03 A2978 RMK A01 T03121026  RH  011%=      5-min Rain = 0
KVA1 242306Z 27008KT 31/M03 A2977 RMK A01 T03111026  RH  011%=      5-min Rain = 0
KVA1 242307Z 29008KT 31/M03 A2977 RMK A01 T03121025  RH  011%=      5-min Rain = 0
KVA1 242308Z 26007KT 32/M02 A2977 RMK A01 T03151024  RH  011%=      5-min Rain = 0
KVA1 242309Z 25010KT 32/M03 A2977 RMK A01 T03191026  RH  011%=      5-min Rain = 0
KVA1 242310Z 26010KT 32/M03 A2977 RMK A01 T03221031  RH  010%=      5-min Rain = 0
KVA1 242311Z 26010KT 32/M03 A2977 RMK A01 T03211032  RH  010%=      5-min Rain = 0
KVA1 242312Z 25011KT 32/M03 A2977 RMK A01 T03201033  RH  010%=      5-min Rain = 0
KVA1 242313Z 26012KT 32/M03 A2977 RMK A01 T03181031  RH  010%=      5-min Rain = 0
KVA1 242314Z 28014G20KT 32/M03 A2977 RMK A01 T03161025  RH  011%=      5-min Rain = 0
KVA1 242315Z 27017KT 32/M02 A2977 RMK A01 T03151024  RH  011%=      5-min Rain = 0
KVA1 242316Z 27013KT 31/M02 A2977 RMK A01 T03141022  RH  011%=      5-min Rain = 0
KVA1 242317Z 26012KT 32/M02 A2977 RMK A01 T03151022  RH  011%=      5-min Rain = 0
KVA1 242318Z 25009KT 31/M02 A2977 RMK A01 T03141023  RH  011%=      5-min Rain = 0
KVA1 242319Z 25010KT 31/M02 A2977 RMK A01 T03141022  RH  011%=      5-min Rain = 0
KVA1 242320Z 25012KT 31/M02 A2977 RMK A01 T03141022  RH  011%=      5-min Rain = 0
KVA1 242321Z 26014KT 31/M02 A2977 RMK A01 T03131022  RH  011%=      5-min Rain = 0
KVA1 242322Z 27014KT 31/M02 A2977 RMK A01 T03131022  RH  011%=      5-min Rain = 0
KVA1 242323Z 28016KT 32/M02 A2977 RMK A01 T03161021  RH  011%=      5-min Rain = 0
KVA1 242324Z 27020G25KT 32/M03 A2977 RMK A01 T03171025  RH  011%=      5-min Rain = 0
KVA1 242325Z 27018KT 31/M03 A2977 RMK A01 T03141029  RH  011%=      5-min Rain = 0
KVA1 242326Z 28017KT 31/M03 A2977 RMK A01 T03141027  RH  011%=      5-min Rain = 0
KVA1 242327Z 28013G18KT 31/M03 A2977 RMK A01 T03121029  RH  011%=      5-min Rain = 0
KVA1 242328Z 28015G22KT 31/M03 A2977 RMK A01 T03111025  RH  011%=      5-min Rain = 0
KVA1 242329Z 28012KT 31/M03 A2977 RMK A01 T03111025  RH  011%=      5-min Rain = 0
KVA1 242330Z 28010KT 31/M02 A2977 RMK A01 T03101023  RH  011%=      5-min Rain = 0
KVA1 242331Z 29010KT 31/M02 A2977 RMK A01 T03131021  RH  011%=      5-min Rain = 0
KVA1 242332Z 29009KT 32/M02 A2977 RMK A01 T03151023  RH  011%=      5-min Rain = 0
KVA1 242333Z 26010KT 32/M02 A2977 RMK A01 T03151022  RH  011%=      5-min Rain = 0
KVA1 242334Z 28011KT 32/M02 A2977 RMK A01 T03151021  RH  011%=      5-min Rain = 0
KVA1 242335Z 29010G18KT 32/M02 A2977 RMK A01 T03151022  RH  011%=      5-min Rain = 0
KVA1 242336Z 27009KT 31/M02 A2977 RMK A01 T03121022  RH  011%=      5-min Rain = 0
KVA1 242337Z 27006KT 31/M02 A2977 RMK A01 T03121021  RH  012%=      5-min Rain = 0
KVA1 242338Z 31008KT 31/M02 A2977 RMK A01 T03141019  RH  012%=      5-min Rain = 0
KVA1 242339Z 28011G16KT 32/M02 A2977 RMK A01 T03161017  RH  012%=      5-min Rain = 0
KVA1 242340Z 30011KT 32/M02 A2977 RMK A01 T03161019  RH  011%=      5-min Rain = 0
KVA1 242341Z 28012KT 31/M02 A2977 RMK A01 T03141020  RH  011%=      5-min Rain = 0
KVA1 242342Z 27013KT 31/M02 A2976 RMK A01 T03141021  RH  011%=      5-min Rain = 0
KVA1 242343Z 27014G19KT 31/M02 A2976 RMK A01 T03141023  RH  011%=      5-min Rain = 0
KVA1 242344Z 27014KT 31/M02 A2977 RMK A01 T03141024  RH  011%=      5-min Rain = 0
KVA1 242345Z 27013G19KT 31/M02 A2976 RMK A01 T03131024  RH  011%=      5-min Rain = 0
KVA1 242346Z 29016KT 31/M02 A2977 RMK A01 T03141023  RH  011%=      5-min Rain = 0
KVA1 242347Z 29016KT 31/M02 A2977 RMK A01 T03141024  RH  011%=      5-min Rain = 0
KVA1 242348Z 28018KT 31/M02 A2977 RMK A01 T03131023  RH  011%=      5-min Rain = 0
KVA1 242349Z 27016KT 31/M02 A2977 RMK A01 T03111021  RH  012%=      5-min Rain = 0
KVA1 242350Z 27015KT 31/M02 A2977 RMK A01 T03111022  RH  012%=      5-min Rain = 0
KVA1 242351Z 27013G18KT 31/M02 A2977 RMK A01 T03101023  RH  011%=      5-min Rain = 0
KVA1 242352Z 28017G23KT 31/M02 A2977 RMK A01 T03111020  RH  012%=      5-min Rain = 0
KVA1 242353Z 26015KT 31/M02 A2977 RMK A01 T03091020  RH  012%=      5-min Rain = 0
KVA1 242354Z 27012KT 31/M02 A2977 RMK A01 T03091019  RH  012%=      5-min Rain = 0
KVA1 242355Z 29013KT 31/M02 A2977 RMK A01 T03101017  RH  012%=      5-min Rain = 0
KVA1 242356Z 30016G21KT 31/M02 A2977 RMK A01 T03121016  RH  012%=      5-min Rain = 0
KVA1 242357Z 30013KT 31/M02 A2977 RMK A01 T03101018  RH  012%=      5-min Rain = 0
KVA1 242358Z 29007KT 31/M02 A2977 RMK A01 T03091018  RH  012%=      5-min Rain = 0
KVA1 242359Z 30009KT 31/M02 A2977 RMK A01 T03081017  RH  012%=      5-min Rain = 0
KVA1 250000Z 31007KT 31/M02 A2977 RMK A01 T03081018  RH  012%=      5-min Rain = 0
KVA1 250001Z 29008KT 31/M02 A2977 RMK A01 T03101016  RH  012%=      5-min Rain = 0
KVA1 250002Z 31010KT 31/M02 A2977 RMK A01 T03101017  RH  012%=      5-min Rain = 0
KVA1 250003Z 28006KT 31/M02 A2977 RMK A01 T03091018  RH  012%=      5-min Rain = 0
KVA1 250004Z 27006KT 31/M02 A2977 RMK A01 T03091016  RH  012%=      5-min Rain = 0
KVA1 250005Z 29012KT 31/M02 A2977 RMK A01 T03111016  RH  012%=      5-min Rain = 0
KVA1 250006Z 28015KT 31/M02 A2977 RMK A01 T03121017  RH  012%=      5-min Rain = 0
KVA1 250007Z 27016G21KT 31/M02 A2977 RMK A01 T03091019  RH  012%=      5-min Rain = 0
KVA1 250008Z 29015KT 31/M02 A2977 RMK A01 T03081019  RH  012%=      5-min Rain = 0
KVA1 250009Z 30012KT 31/M02 A2977 RMK A01 T03081019  RH  012%=      5-min Rain = 0
KVA1 250010Z 28011KT 31/M02 A2977 RMK A01 T03081018  RH  012%=      5-min Rain = 0
KVA1 250011Z 27014KT 31/M02 A2977 RMK A01 T03081018  RH  012%=      5-min Rain = 0
KVA1 250012Z 27015KT 31/M02 A2977 RMK A01 T03081019  RH  012%=      5-min Rain = 0
KVA1 250013Z 28014KT 31/M02 A2977 RMK A01 T03081018  RH  012%=      5-min Rain = 0
KVA1 250014Z 29012KT 31/M02 A2978 RMK A01 T03091018  RH  012%=      5-min Rain = 0
KVA1 250015Z 28013KT 31/M02 A2978 RMK A01 T03091019  RH  012%=      5-min Rain = 0
KVA1 250016Z 30012KT 31/M02 A2977 RMK A01 T03071020  RH  012%=      5-min Rain = 0
KVA1 250017Z 31010KT 31/M02 A2977 RMK A01 T03061021  RH  012%=      5-min Rain = 0
KVA1 250018Z 31009KT 30/M02 A2977 RMK A01 T03041020  RH  012%=      5-min Rain = 0
KVA1 250019Z 29013G21KT 30/M02 A2977 RMK A01 T03041019  RH  012%=      5-min Rain = 0
KVA1 250020Z 28015KT 31/M02 A2977 RMK A01 T03051021  RH  012%=      5-min Rain = 0
KVA1 250021Z 27014KT 31/M02 A2977 RMK A01 T03061021  RH  012%=      5-min Rain = 0
KVA1 250022Z 28014KT 31/M02 A2977 RMK A01 T03061021  RH  012%=      5-min Rain = 0
KVA1 250023Z 28013G18KT 31/M02 A2977 RMK A01 T03061021  RH  012%=      5-min Rain = 0
KVA1 250024Z 27011KT 31/M02 A2977 RMK A01 T03051022  RH  012%=      5-min Rain = 0
KVA1 250025Z 27010KT 31/M02 A2977 RMK A01 T03051022  RH  012%=      5-min Rain = 0
KVA1 250026Z 28012KT 30/M02 A2977 RMK A01 T03041021  RH  012%=      5-min Rain = 0
KVA1 250027Z 29008KT 31/M02 A2977 RMK A01 T03051021  RH  012%=      5-min Rain = 0
KVA1 250028Z 28011KT 31/M02 A2977 RMK A01 T03061019  RH  012%=      5-min Rain = 0
KVA1 250029Z 29009G14KT 31/M02 A2977 RMK A01 T03071019  RH  012%=      5-min Rain = 0
KVA1 250030Z 28017KT 31/M02 A2977 RMK A01 T03071019  RH  012%=      5-min Rain = 0
KVA1 250031Z 27016KT 31/M02 A2978 RMK A01 T03061021  RH  012%=      5-min Rain = 0
KVA1 250032Z 28012KT 31/M02 A2978 RMK A01 T03051021  RH  012%=      5-min Rain = 0
KVA1 250033Z 28010KT 30/M02 A2977 RMK A01 T03031022  RH  012%=      5-min Rain = 0
KVA1 250034Z 27008KT 30/M02 A2977 RMK A01 T03021022  RH  012%=      5-min Rain = 0
KVA1 250035Z 27010KT 30/M02 A2977 RMK A01 T03021022  RH  012%=      5-min Rain = 0
KVA1 250036Z 27012KT 30/M02 A2977 RMK A01 T03021022  RH  012%=      5-min Rain = 0
KVA1 250037Z 27011KT 30/M02 A2977 RMK A01 T03031021  RH  012%=      5-min Rain = 0
KVA1 250038Z 28012KT 30/M02 A2977 RMK A01 T03031022  RH  012%=      5-min Rain = 0
KVA1 250039Z 27013G19KT 30/M02 A2977 RMK A01 T03031023  RH  012%=      5-min Rain = 0
KVA1 250040Z 25012G17KT 30/M02 A2977 RMK A01 T03031023  RH  012%=      5-min Rain = 0
KVA1 250041Z 26013KT 30/M02 A2977 RMK A01 T03031024  RH  012%=      5-min Rain = 0
KVA1 250042Z 27013KT 30/M03 A2977 RMK A01 T03031025  RH  012%=      5-min Rain = 0
KVA1 250043Z 26010KT 30/M03 A2977 RMK A01 T03021025  RH  012%=      5-min Rain = 0
KVA1 250044Z 25009KT 30/M03 A2977 RMK A01 T03021026  RH  012%=      5-min Rain = 0
KVA1 250045Z 26012KT 30/M03 A2977 RMK A01 T03021026  RH  012%=      5-min Rain = 0
KVA1 250046Z 27010KT 30/M03 A2977 RMK A01 T03021027  RH  012%=      5-min Rain = 0
KVA1 250047Z 27010KT 30/M03 A2977 RMK A01 T03011026  RH  012%=      5-min Rain = 0
KVA1 250048Z 27010KT 30/M03 A2977 RMK A01 T03011026  RH  012%=      5-min Rain = 0
KVA1 250049Z 29013G21KT 30/M02 A2977 RMK A01 T03021024  RH  012%=      5-min Rain = 0
KVA1 250050Z 30013KT 30/M03 A2977 RMK A01 T03021027  RH  012%=      5-min Rain = 0
KVA1 250051Z 29015G21KT 30/M03 A2977 RMK A01 T03021028  RH  012%=      5-min Rain = 0
KVA1 250052Z 28011KT 30/M03 A2977 RMK A01 T03021029  RH  012%=      5-min Rain = 0
KVA1 250053Z 29011KT 30/M03 A2977 RMK A01 T03021028  RH  012%=      5-min Rain = 0
KVA1 250054Z 29011G17KT 30/M03 A2977 RMK A01 T03021028  RH  012%=      5-min Rain = 0
KVA1 250055Z 28010G16KT 30/M03 A2977 RMK A01 T03021028  RH  012%=      5-min Rain = 0
KVA1 250056Z 29010KT 30/M03 A2977 RMK A01 T03021029  RH  012%=      5-min Rain = 0
KVA1 250057Z 29010KT 30/M03 A2977 RMK A01 T03011029  RH  012%=      5-min Rain = 0
KVA1 250058Z 29012KT 30/M03 A2977 RMK A01 T03001029  RH  012%=      5-min Rain = 0
KVA1 250059Z 29012G17KT 30/M03 A2978 RMK A01 T03001029  RH  012%=      5-min Rain = 0
KVA1 250100Z 28010G16KT 30/M03 A2977 RMK A01 T03001028  RH  012%=      5-min Rain = 0
KVA1 250101Z 28010KT 30/M03 A2977 RMK A01 T02991027  RH  012%=      5-min Rain = 0
KVA1 250102Z 28012KT 30/M03 A2977 RMK A01 T02981027  RH  012%=      5-min Rain = 0
KVA1 250103Z 28011KT 30/M03 A2977 RMK A01 T02971027  RH  012%=      5-min Rain = 0
KVA1 250104Z 28011KT 30/M03 A2977 RMK A01 T02961027  RH  012%=      5-min Rain = 0
KVA1 250105Z 28013KT 30/M03 A2977 RMK A01 T02961026  RH  012%=      5-min Rain = 0
KVA1 250106Z 29011KT 30/M03 A2977 RMK A01 T02961027  RH  012%=      5-min Rain = 0
KVA1 250107Z 28012KT 30/M03 A2977 RMK A01 T02961026  RH  012%=      5-min Rain = 0
KVA1 250108Z 27015G21KT 30/M03 A2977 RMK A01 T02961026  RH  012%=      5-min Rain = 0
KVA1 250109Z 28013KT 30/M03 A2977 RMK A01 T02961027  RH  012%=      5-min Rain = 0
KVA1 250110Z 29015KT 30/M03 A2977 RMK A01 T02961026  RH  012%=      5-min Rain = 0
KVA1 250111Z 28010KT 30/M03 A2977 RMK A01 T02961027  RH  012%=      5-min Rain = 0
KVA1 250112Z 29011G16KT 30/M03 A2977 RMK A01 T02961026  RH  012%=      5-min Rain = 0
KVA1 250113Z 29011KT 30/M03 A2977 RMK A01 T02961026  RH  012%=      5-min Rain = 0
KVA1 250114Z 29013KT 30/M03 A2977 RMK A01 T02951027  RH  012%=      5-min Rain = 0
KVA1 250115Z 29009KT 29/M03 A2977 RMK A01 T02941027  RH  012%=      5-min Rain = 0
KVA1 250116Z 29011KT 29/M03 A2977 RMK A01 T02941026  RH  012%=      5-min Rain = 0
KVA1 250117Z 29010KT 29/M03 A2977 RMK A01 T02941027  RH  012%=      5-min Rain = 0
KVA1 250118Z 29009KT 29/M03 A2977 RMK A01 T02941027  RH  012%=      5-min Rain = 0
KVA1 250119Z 28008KT 29/M03 A2977 RMK A01 T02931026  RH  012%=      5-min Rain = 0
KVA1 250120Z 29006KT 29/M03 A2977 RMK A01 T02941025  RH  012%=      5-min Rain = 0
KVA1 250121Z 28008KT 29/M03 A2977 RMK A01 T02931025  RH  012%=      5-min Rain = 0
KVA1 250122Z 28007KT 29/M03 A2977 RMK A01 T02931025  RH  012%=      5-min Rain = 0
KVA1 250123Z 29007KT 29/M03 A2977 RMK A01 T02931025  RH  012%=      5-min Rain = 0
KVA1 250124Z 29010KT 29/M03 A2977 RMK A01 T02931025  RH  012%=      5-min Rain = 0
KVA1 250125Z 29014KT 29/M03 A2978 RMK A01 T02931027  RH  012%=      5-min Rain = 0
KVA1 250126Z 29010KT 29/M03 A2978 RMK A01 T02931027  RH  012%=      5-min Rain = 0
KVA1 250127Z 29010KT 29/M03 A2978 RMK A01 T02931026  RH  012%=      5-min Rain = 0
KVA1 250128Z 28013G18KT 29/M03 A2978 RMK A01 T02921028  RH  012%=      5-min Rain = 0
KVA1 250129Z 28012KT 29/M03 A2978 RMK A01 T02911030  RH  012%=      5-min Rain = 0
KVA1 250130Z 29013KT 29/M03 A2978 RMK A01 T02911031  RH  012%=      5-min Rain = 0
KVA1 250131Z 29010KT 29/M03 A2978 RMK A01 T02911031  RH  012%=      5-min Rain = 0
KVA1 250132Z 28010KT 29/M03 A2978 RMK A01 T02901031  RH  012%=      5-min Rain = 0
KVA1 250133Z 28013KT 29/M03 A2978 RMK A01 T02901031  RH  012%=      5-min Rain = 0
KVA1 250134Z 27013KT 29/M03 A2978 RMK A01 T02891031  RH  012%=      5-min Rain = 0
KVA1 250135Z 28013KT 29/M03 A2978 RMK A01 T02891031  RH  012%=      5-min Rain = 0
KVA1 250136Z 27011KT 29/M03 A2978 RMK A01 T02891031  RH  012%=      5-min Rain = 0
KVA1 250137Z 28011KT 29/M03 A2978 RMK A01 T02891032  RH  012%=      5-min Rain = 0
KVA1 250138Z 28010KT 29/M03 A2979 RMK A01 T02881031  RH  012%=      5-min Rain = 0
KVA1 250139Z 28008KT 29/M03 A2979 RMK A01 T02881031  RH  012%=      5-min Rain = 0
KVA1 250140Z 30009G14KT 29/M03 A2979 RMK A01 T02871031  RH  012%=      5-min Rain = 0
KVA1 250141Z 30011KT 29/M03 A2979 RMK A01 T02861032  RH  012%=      5-min Rain = 0
KVA1 250142Z 29012KT 29/M03 A2979 RMK A01 T02861032  RH  012%=      5-min Rain = 0
KVA1 250143Z 29011KT 29/M03 A2979 RMK A01 T02861032  RH  012%=      5-min Rain = 0
KVA1 250144Z 30010KT 29/M03 A2979 RMK A01 T02861032  RH  012%=      5-min Rain = 0
KVA1 250145Z 30008KT 29/M03 A2979 RMK A01 T02851033  RH  012%=      5-min Rain = 0
KVA1 250146Z 30008KT 29/M03 A2979 RMK A01 T02851033  RH  012%=      5-min Rain = 0
KVA1 250147Z 30008KT 28/M03 A2979 RMK A01 T02841033  RH  012%=      5-min Rain = 0
KVA1 250148Z 30007KT 28/M03 A2979 RMK A01 T02841034  RH  012%=      5-min Rain = 0
KVA1 250149Z 29007KT 28/M03 A2979 RMK A01 T02841034  RH  012%=      5-min Rain = 0
KVA1 250150Z 29006KT 28/M03 A2979 RMK A01 T02831034  RH  012%=      5-min Rain = 0
KVA1 250151Z 29008KT 28/M04 A2979 RMK A01 T02821035  RH  012%=      5-min Rain = 0
KVA1 250152Z 30007KT 28/M04 A2979 RMK A01 T02821036  RH  012%=      5-min Rain = 0
KVA1 250153Z 29006KT 28/M04 A2979 RMK A01 T02821037  RH  012%=      5-min Rain = 0
KVA1 250154Z 30006KT 28/M04 A2979 RMK A01 T02811037  RH  012%=      5-min Rain = 0
KVA1 250155Z 30005KT 28/M04 A2979 RMK A01 T02811037  RH  012%=      5-min Rain = 0
KVA1 250156Z 31005KT 28/M04 A2979 RMK A01 T02801037  RH  012%=      5-min Rain = 0
KVA1 250157Z 30005KT 28/M04 A2979 RMK A01 T02791037  RH  012%=      5-min Rain = 0
KVA1 250158Z 30006KT 28/M04 A2979 RMK A01 T02781037  RH  012%=      5-min Rain = 0
KVA1 250159Z 30008G14KT 28/M04 A2979 RMK A01 T02781037  RH  012%=      5-min Rain = 0
KVA1 250200Z 29009KT 28/M04 A2979 RMK A01 T02781039  RH  012%=      5-min Rain = 0
KVA1 250201Z 28009KT 28/M04 A2979 RMK A01 T02791041  RH  012%=      5-min Rain = 0
KVA1 250202Z 28007KT 28/M04 A2979 RMK A01 T02791041  RH  012%=      5-min Rain = 0
KVA1 250203Z 29009KT 28/M04 A2979 RMK A01 T02791041  RH  012%=      5-min Rain = 0
KVA1 250204Z 28009KT 28/M04 A2979 RMK A01 T02781043  RH  012%=      5-min Rain = 0
KVA1 250205Z 28008KT 28/M04 A2979 RMK A01 T02791043  RH  012%=      5-min Rain = 0
KVA1 250206Z 29007KT 28/M04 A2979 RMK A01 T02791043  RH  012%=      5-min Rain = 0
KVA1 250207Z 28007KT 28/M04 A2979 RMK A01 T02781043  RH  012%=      5-min Rain = 0
KVA1 250208Z 28007KT 28/M04 A2979 RMK A01 T02771043  RH  012%=      5-min Rain = 0
KVA1 250209Z 29008KT 28/M04 A2979 RMK A01 T02761044  RH  012%=      5-min Rain = 0
KVA1 250210Z 29008KT 28/M05 A2979 RMK A01 T02761045  RH  012%=      5-min Rain = 0
KVA1 250211Z 29009KT 28/M05 A2979 RMK A01 T02771046  RH  012%=      5-min Rain = 0
KVA1 250212Z 30007KT 28/M05 A2979 RMK A01 T02781046  RH  012%=      5-min Rain = 0
KVA1 250213Z 30005KT 28/M05 A2979 RMK A01 T02781047  RH  012%=      5-min Rain = 0
KVA1 250214Z 29008KT 28/M05 A2979 RMK A01 T02781046  RH  012%=      5-min Rain = 0
KVA1 250215Z 29007KT 28/M05 A2979 RMK A01 T02781047  RH  012%=      5-min Rain = 0
KVA1 250216Z 28007KT 28/M05 A2979 RMK A01 T02771048  RH  012%=      5-min Rain = 0
KVA1 250217Z 29006KT 28/M05 A2979 RMK A01 T02761048  RH  012%=      5-min Rain = 0
KVA1 250218Z 29006KT 28/M05 A2979 RMK A01 T02761049  RH  012%=      5-min Rain = 0
KVA1 250219Z 29007KT 28/M05 A2979 RMK A01 T02751049  RH  012%=      5-min Rain = 0
KVA1 250220Z 29006KT 28/M05 A2979 RMK A01 T02751049  RH  012%=      5-min Rain = 0
KVA1 250221Z 29005KT 27/M05 A2979 RMK A01 T02741049  RH  012%=      5-min Rain = 0
KVA1 250222Z 30005KT 27/M05 A2979 RMK A01 T02731049  RH  012%=      5-min Rain = 0
KVA1 250223Z 30004KT 27/M05 A2979 RMK A01 T02721049  RH  012%=      5-min Rain = 0
KVA1 250224Z 29006KT 27/M05 A2979 RMK A01 T02701050  RH  012%=      5-min Rain = 0
KVA1 250225Z 29007KT 27/M05 A2979 RMK A01 T02701049  RH  012%=      5-min Rain = 0
KVA1 250226Z 30006KT 27/M05 A2979 RMK A01 T02711049  RH  012%=      5-min Rain = 0
KVA1 250227Z 30006KT 27/M05 A2979 RMK A01 T02711049  RH  012%=      5-min Rain = 0
KVA1 250228Z 30006KT 27/M05 A2979 RMK A01 T02711049  RH  012%=      5-min Rain = 0
KVA1 250229Z 30006KT 27/M05 A2979 RMK A01 T02711049  RH  012%=      5-min Rain = 0
KVA1 250230Z 30006KT 27/M05 A2979 RMK A01 T02711049  RH  012%=      5-min Rain = 0
KVA1 250231Z 30006KT 27/M05 A2979 RMK A01 T02701049  RH  012%=      5-min Rain = 0
KVA1 250232Z 30006KT 27/M05 A298 RMK A01 T02681049  RH  012%=      5-min Rain = 0
KVA1 250233Z 31007KT 27/M05 A2979 RMK A01 T02681049  RH  012%=      5-min Rain = 0
KVA1 250234Z 30007KT 27/M05 A2979 RMK A01 T02671049  RH  012%=      5-min Rain = 0
KVA1 250235Z 30006KT 27/M05 A298 RMK A01 T02681048  RH  012%=      5-min Rain = 0
KVA1 250236Z 30006KT 27/M05 A298 RMK A01 T02681048  RH  012%=      5-min Rain = 0
KVA1 250237Z 30006KT 27/M05 A298 RMK A01 T02681048  RH  012%=      5-min Rain = 0
KVA1 250238Z 30005KT 27/M05 A298 RMK A01 T02681048  RH  012%=      5-min Rain = 0
KVA1 250239Z 29004KT 27/M05 A298 RMK A01 T02671048  RH  012%=      5-min Rain = 0
KVA1 250240Z 30006KT 27/M05 A298 RMK A01 T02661048  RH  012%=      5-min Rain = 0
KVA1 250241Z 30005KT 27/M05 A298 RMK A01 T02661047  RH  012%=      5-min Rain = 0
KVA1 250242Z 30005KT 27/M05 A298 RMK A01 T02651048  RH  012%=      5-min Rain = 0
KVA1 250243Z 30005KT 26/M05 A298 RMK A01 T02641048  RH  012%=      5-min Rain = 0
KVA1 250244Z 30005KT 26/M05 A298 RMK A01 T02641048  RH  012%=      5-min Rain = 0
KVA1 250245Z 30006KT 26/M05 A298 RMK A01 T02631048  RH  013%=      5-min Rain = 0
KVA1 250246Z 31006KT 26/M05 A298 RMK A01 T02631048  RH  013%=      5-min Rain = 0
KVA1 250247Z 31006KT 26/M05 A298 RMK A01 T02621048  RH  013%=      5-min Rain = 0
KVA1 250248Z 31006KT 26/M05 A298 RMK A01 T02621048  RH  013%=      5-min Rain = 0
KVA1 250249Z 30006KT 26/M05 A298 RMK A01 T02631047  RH  013%=      5-min Rain = 0
KVA1 250250Z 31006KT 26/M05 A298 RMK A01 T02631047  RH  013%=      5-min Rain = 0
KVA1 250251Z 30006KT 26/M05 A298 RMK A01 T02631047  RH  013%=      5-min Rain = 0
KVA1 250252Z 30007KT 26/M05 A298 RMK A01 T02631046  RH  013%=      5-min Rain = 0
KVA1 250253Z 31007KT 26/M05 A298 RMK A01 T02631047  RH  013%=      5-min Rain = 0
KVA1 250254Z 31006KT 26/M05 A298 RMK A01 T02631046  RH  013%=      5-min Rain = 0
KVA1 250255Z 31006KT 26/M05 A298 RMK A01 T02641045  RH  013%=      5-min Rain = 0
KVA1 250256Z 30006KT 26/M05 A298 RMK A01 T02641046  RH  013%=      5-min Rain = 0
KVA1 250257Z 30006KT 26/M05 A298 RMK A01 T02631046  RH  013%=      5-min Rain = 0
KVA1 250258Z 30006KT 26/M05 A298 RMK A01 T02631045  RH  013%=      5-min Rain = 0
KVA1 250259Z 30006KT 26/M05 A298 RMK A01 T02621045  RH  013%=      5-min Rain = 0
KVA1 250300Z 30006KT 26/M05 A298 RMK A01 T02621045  RH  013%=      5-min Rain = 0
KVA1 250301Z 30006KT 26/M04 A298 RMK A01 T02621044  RH  013%=      5-min Rain = 0
KVA1 250302Z 30006KT 26/M04 A298 RMK A01 T02611044  RH  013%=      5-min Rain = 0
KVA1 250303Z 30007KT 26/M04 A298 RMK A01 T02611044  RH  013%=      5-min Rain = 0
KVA1 250304Z 30006KT 26/M04 A298 RMK A01 T02611043  RH  013%=      5-min Rain = 0
KVA1 250305Z 30006KT 26/M04 A298 RMK A01 T02611043  RH  013%=      5-min Rain = 0
KVA1 250306Z 30007KT 26/M04 A298 RMK A01 T02611043  RH  013%=      5-min Rain = 0
KVA1 250307Z 30006KT 26/M04 A298 RMK A01 T02611043  RH  013%=      5-min Rain = 0
KVA1 250308Z 30005KT 26/M04 A298 RMK A01 T02611042  RH  013%=      5-min Rain = 0
KVA1 250309Z 30006KT 26/M04 A298 RMK A01 T02611042  RH  013%=      5-min Rain = 0
KVA1 250310Z 30006KT 26/M04 A298 RMK A01 T02601042  RH  013%=      5-min Rain = 0
KVA1 250311Z 31005KT 26/M04 A298 RMK A01 T02591042  RH  013%=      5-min Rain = 0
KVA1 250312Z 31005KT 26/M04 A298 RMK A01 T02581042  RH  013%=      5-min Rain = 0
KVA1 250313Z 31005KT 26/M04 A298 RMK A01 T02571042  RH  014%=      5-min Rain = 0
KVA1 250314Z 31005KT 26/M04 A298 RMK A01 T02571042  RH  014%=      5-min Rain = 0
KVA1 250315Z 30005KT 26/M04 A298 RMK A01 T02561042  RH  014%=      5-min Rain = 0
KVA1 250316Z 31005KT 26/M04 A298 RMK A01 T02551042  RH  014%=      5-min Rain = 0
KVA1 250317Z 31006KT 25/M04 A298 RMK A01 T02541042  RH  014%=      5-min Rain = 0
KVA1 250318Z 30006KT 25/M04 A298 RMK A01 T02531042  RH  014%=      5-min Rain = 0
KVA1 250319Z 31005KT 25/M04 A298 RMK A01 T02531042  RH  014%=      5-min Rain = 0
KVA1 250320Z 31005KT 25/M04 A298 RMK A01 T02531041  RH  014%=      5-min Rain = 0
KVA1 250321Z 31005KT 25/M04 A298 RMK A01 T02531042  RH  014%=      5-min Rain = 0
KVA1 250322Z 31005KT 25/M04 A298 RMK A01 T02531041  RH  014%=      5-min Rain = 0
KVA1 250323Z 31005KT 25/M04 A298 RMK A01 T02521041  RH  014%=      5-min Rain = 0
KVA1 250324Z 31005KT 25/M04 A298 RMK A01 T02511041  RH  014%=      5-min Rain = 0
KVA1 250325Z 30005KT 25/M04 A298 RMK A01 T02511040  RH  014%=      5-min Rain = 0
KVA1 250326Z 30005KT 25/M04 A298 RMK A01 T02511040  RH  014%=      5-min Rain = 0
KVA1 250327Z 30005KT 25/M04 A298 RMK A01 T02511040  RH  014%=      5-min Rain = 0
KVA1 250328Z 31005KT 25/M04 A298 RMK A01 T02511040  RH  014%=      5-min Rain = 0
KVA1 250329Z 31005KT 25/M04 A298 RMK A01 T02511039  RH  014%=      5-min Rain = 0
KVA1 250330Z 31006KT 25/M04 A298 RMK A01 T02511038  RH  014%=      5-min Rain = 0
KVA1 250331Z 31006KT 25/M04 A298 RMK A01 T02511038  RH  015%=      5-min Rain = 0
KVA1 250332Z 30005KT 25/M04 A298 RMK A01 T02511037  RH  015%=      5-min Rain = 0
KVA1 250333Z 29005KT 25/M04 A2979 RMK A01 T02511036  RH  015%=      5-min Rain = 0
KVA1 250334Z 29005KT 25/M04 A2979 RMK A01 T02501035  RH  015%=      5-min Rain = 0
KVA1 250335Z 30005KT 25/M04 A2979 RMK A01 T02491035  RH  015%=      5-min Rain = 0
KVA1 250336Z 29004KT 25/M04 A2979 RMK A01 T02481036  RH  015%=      5-min Rain = 0
KVA1 250337Z 27004KT 25/M04 A2979 RMK A01 T02461039  RH  015%=      5-min Rain = 0
KVA1 250338Z 27004KT 24/M04 A2979 RMK A01 T02441040  RH  015%=      5-min Rain = 0
KVA1 250339Z 28004KT 24/M04 A2979 RMK A01 T02411040  RH  015%=      5-min Rain = 0
KVA1 250340Z 28004KT 24/M04 A2979 RMK A01 T02391041  RH  015%=      5-min Rain = 0
KVA1 250341Z 27005KT 24/M04 A2979 RMK A01 T02371040  RH  016%=      5-min Rain = 0
KVA1 250342Z 27005KT 24/M04 A2979 RMK A01 T02361040  RH  016%=      5-min Rain = 0
KVA1 250343Z 27005KT 24/M04 A2979 RMK A01 T02351040  RH  016%=      5-min Rain = 0
KVA1 250344Z 27005KT 24/M04 A2979 RMK A01 T02351040  RH  016%=      5-min Rain = 0
KVA1 250345Z 28005KT 23/M04 A2979 RMK A01 T02341039  RH  016%=      5-min Rain = 0
KVA1 250346Z 28005KT 23/M04 A2979 RMK A01 T02341039  RH  016%=      5-min Rain = 0
KVA1 250347Z 27005KT 23/M04 A2979 RMK A01 T02341039  RH  016%=      5-min Rain = 0
KVA1 250348Z 27006KT 23/M04 A2979 RMK A01 T02341039  RH  016%=      5-min Rain = 0
KVA1 250349Z 27006KT 23/M04 A2979 RMK A01 T02341040  RH  016%=      5-min Rain = 0
KVA1 250350Z 27006KT 23/M04 A2979 RMK A01 T02341040  RH  016%=      5-min Rain = 0
KVA1 250351Z 28005KT 23/M04 A2979 RMK A01 T02341040  RH  016%=      5-min Rain = 0
KVA1 250352Z 27006KT 23/M04 A2979 RMK A01 T02331040  RH  016%=      5-min Rain = 0
KVA1 250353Z 27005KT 23/M04 A2978 RMK A01 T02321040  RH  016%=      5-min Rain = 0
KVA1 250354Z 28005KT 23/M04 A2978 RMK A01 T02321040  RH  016%=      5-min Rain = 0
KVA1 250355Z 28006KT 23/M04 A2978 RMK A01 T02311039  RH  016%=      5-min Rain = 0
KVA1 250356Z 27006KT 23/M04 A2978 RMK A01 T02311039  RH  016%=      5-min Rain = 0
KVA1 250357Z 27006KT 23/M04 A2978 RMK A01 T02311039  RH  016%=      5-min Rain = 0
KVA1 250358Z 27006KT 23/M04 A2978 RMK A01 T02311040  RH  016%=      5-min Rain = 0
KVA1 250359Z 27006KT 23/M04 A2978 RMK A01 T02311039  RH  016%=      5-min Rain = 0
KVA1 250400Z 27005KT 23/M04 A2978 RMK A01 T02311040  RH  016%=      5-min Rain = 0
KVA1 250401Z 27005KT 23/M04 A2978 RMK A01 T02311040  RH  016%=      5-min Rain = 0
KVA1 250402Z 27006KT 23/M04 A2978 RMK A01 T02301040  RH  016%=      5-min Rain = 0
KVA1 250403Z 27006KT 23/M04 A2978 RMK A01 T02301040  RH  016%=      5-min Rain = 0
KVA1 250404Z 27006KT 23/M04 A2978 RMK A01 T02301040  RH  016%=      5-min Rain = 0
KVA1 250405Z 27006KT 23/M04 A2978 RMK A01 T02301040  RH  016%=      5-min Rain = 0
KVA1 250406Z 27005KT 23/M04 A2978 RMK A01 T02301040  RH  016%=      5-min Rain = 0
KVA1 250407Z 27005KT 23/M04 A2978 RMK A01 T02301039  RH  016%=      5-min Rain = 0
KVA1 250408Z 27006KT 23/M04 A2978 RMK A01 T02301039  RH  016%=      5-min Rain = 0
KVA1 250409Z 27006KT 23/M04 A2978 RMK A01 T02301039  RH  016%=      5-min Rain = 0
KVA1 250410Z 27007KT 23/M04 A2978 RMK A01 T02301039  RH  016%=      5-min Rain = 0
KVA1 250411Z 27007KT 23/M04 A2978 RMK A01 T02321038  RH  016%=      5-min Rain = 0
KVA1 250412Z 27006KT 23/M04 A2979 RMK A01 T02341037  RH  016%=      5-min Rain = 0
KVA1 250413Z 27007KT 24/M04 A2979 RMK A01 T02351036  RH  016%=      5-min Rain = 0
KVA1 250414Z 27007KT 24/M04 A2979 RMK A01 T02351036  RH  016%=      5-min Rain = 0
KVA1 250415Z 27006KT 24/M04 A2979 RMK A01 T02361036  RH  016%=      5-min Rain = 0
KVA1 250416Z 27006KT 24/M04 A2979 RMK A01 T02361036  RH  016%=      5-min Rain = 0
KVA1 250417Z 27007KT 24/M04 A2979 RMK A01 T02361036  RH  016%=      5-min Rain = 0
KVA1 250418Z 27006KT 24/M03 A2979 RMK A01 T02371034  RH  016%=      5-min Rain = 0
KVA1 250419Z 27005KT 24/M03 A2979 RMK A01 T02391034  RH  016%=      5-min Rain = 0
KVA1 250420Z 28004KT 24/M04 A2979 RMK A01 T02391035  RH  016%=      5-min Rain = 0
KVA1 250421Z 28005KT 24/M04 A2979 RMK A01 T02381035  RH  016%=      5-min Rain = 0
KVA1 250422Z 28005KT 24/M04 A2979 RMK A01 T02371035  RH  016%=      5-min Rain = 0
KVA1 250423Z 28005KT 24/M04 A2979 RMK A01 T02351035  RH  016%=      5-min Rain = 0
KVA1 250424Z 27005KT 24/M03 A2979 RMK A01 T02351034  RH  016%=      5-min Rain = 0
KVA1 250425Z 27005KT 23/M03 A2979 RMK A01 T02341034  RH  016%=      5-min Rain = 0
KVA1 250426Z 27005KT 23/M03 A2979 RMK A01 T02331034  RH  017%=      5-min Rain = 0
KVA1 250427Z 27005KT 23/M03 A2979 RMK A01 T02331034  RH  017%=      5-min Rain = 0
KVA1 250428Z 26005KT 23/M03 A2979 RMK A01 T02331033  RH  017%=      5-min Rain = 0
KVA1 250429Z 26006KT 23/M03 A2979 RMK A01 T02331033  RH  017%=      5-min Rain = 0
KVA1 250430Z 27006KT 23/M03 A2979 RMK A01 T02331033  RH  017%=      5-min Rain = 0
KVA1 250431Z 27006KT 24/M03 A2979 RMK A01 T02351032  RH  017%=      5-min Rain = 0
KVA1 250432Z 26006KT 24/M03 A2979 RMK A01 T02361032  RH  017%=      5-min Rain = 0
KVA1 250433Z 26007KT 24/M03 A2979 RMK A01 T02361032  RH  017%=      5-min Rain = 0
KVA1 250434Z 26006KT 24/M03 A2979 RMK A01 T02361032  RH  017%=      5-min Rain = 0
KVA1 250435Z 26006KT 24/M03 A298 RMK A01 T02361032  RH  017%=      5-min Rain = 0
KVA1 250436Z 25006KT 24/M03 A298 RMK A01 T02361032  RH  017%=      5-min Rain = 0
KVA1 250437Z 26006KT 24/M03 A298 RMK A01 T02351032  RH  017%=      5-min Rain = 0
KVA1 250438Z 26006KT 23/M03 A298 RMK A01 T02341032  RH  017%=      5-min Rain = 0
KVA1 250439Z 26006KT 23/M03 A298 RMK A01 T02331032  RH  017%=      5-min Rain = 0
KVA1 250440Z 26007KT 23/M03 A2979 RMK A01 T02331032  RH  017%=      5-min Rain = 0
KVA1 250441Z 26007KT 23/M03 A2979 RMK A01 T02331031  RH  017%=      5-min Rain = 0
KVA1 250442Z 26009KT 24/M03 A2979 RMK A01 T02351031  RH  017%=      5-min Rain = 0
KVA1 250443Z 26008KT 24/M03 A2979 RMK A01 T02401030  RH  016%=      5-min Rain = 0
KVA1 250444Z 26008KT 24/M03 A2979 RMK A01 T02431029  RH  016%=      5-min Rain = 0
KVA1 250445Z 25007KT 25/M03 A2979 RMK A01 T02451029  RH  016%=      5-min Rain = 0
KVA1 250446Z 26008KT 25/M03 A2979 RMK A01 T02461029  RH  016%=      5-min Rain = 0
KVA1 250447Z 26008KT 25/M03 A2979 RMK A01 T02451030  RH  016%=      5-min Rain = 0
KVA1 250448Z 26007KT 24/M03 A2979 RMK A01 T02441030  RH  016%=      5-min Rain = 0
KVA1 250449Z 26007KT 24/M03 A2979 RMK A01 T02441030  RH  016%=      5-min Rain = 0
KVA1 250450Z 26007KT 24/M03 A298 RMK A01 T02441032  RH  016%=      5-min Rain = 0
KVA1 250451Z 26008KT 25/M03 A298 RMK A01 T02451031  RH  016%=      5-min Rain = 0
KVA1 250452Z 26007KT 25/M03 A298 RMK A01 T02451031  RH  016%=      5-min Rain = 0
KVA1 250453Z 26008KT 25/M03 A298 RMK A01 T02451032  RH  016%=      5-min Rain = 0
KVA1 250454Z 26008KT 25/M03 A298 RMK A01 T02451032  RH  016%=      5-min Rain = 0
KVA1 250455Z 26009KT 25/M03 A298 RMK A01 T02461032  RH  016%=      5-min Rain = 0
KVA1 250456Z 26007KT 25/M03 A298 RMK A01 T02461032  RH  016%=      5-min Rain = 0
KVA1 250457Z 26008KT 25/M03 A298 RMK A01 T02461032  RH  016%=      5-min Rain = 0
KVA1 250458Z 26008KT 25/M03 A298 RMK A01 T02461032  RH  016%=      5-min Rain = 0
KVA1 250459Z 26008KT 25/M03 A298 RMK A01 T02461032  RH  016%=      5-min Rain = 0

Page generated in 0.1343 seconds.